<?xml version="1.0" encoding="UTF-8" standalone="no" ?>
<gpx xmlns="http://www.topografix.com/GPX/1/1" xmlns:xsi="http://www.w3.org/2001/XMLSchema-instance" xsi:schemaLocation="http://www.topografix.com/GPX/1/1 http://www.topografix.com/GPX/1/1/gpx.xsd" version="1.1" creator="VisuGPX - https://www.visugpx.com">
  <metadata>
    <name>MARCHE AUTOMNE 16 10 2022-15706647</name>
  </metadata>
  <trk>
    <name><![CDATA[MARCHE AUTOMNE 16 10 2022-15706647]]></name>
    <trkseg>
      <trkpt lat="48.86362" lon="1.79758">
        <ele>162</ele>
        <time>2023-01-08T18:03:30Z</time>
      </trkpt>
      <trkpt lat="48.86365" lon="1.79772">
        <ele>161</ele>
        <time>2023-01-08T18:03:43Z</time>
      </trkpt>
      <trkpt lat="48.86362" lon="1.79783">
        <ele>161</ele>
        <time>2023-01-08T18:03:53Z</time>
      </trkpt>
      <trkpt lat="48.86341" lon="1.79788">
        <ele>161</ele>
        <time>2023-01-08T18:04:22Z</time>
      </trkpt>
      <trkpt lat="48.8626" lon="1.79849">
        <ele>161</ele>
        <time>2023-01-08T18:06:22Z</time>
      </trkpt>
      <trkpt lat="48.86234" lon="1.79862">
        <ele>160</ele>
        <time>2023-01-08T18:06:59Z</time>
      </trkpt>
      <trkpt lat="48.86209" lon="1.79885">
        <ele>157</ele>
        <time>2023-01-08T18:07:38Z</time>
      </trkpt>
      <trkpt lat="48.86154" lon="1.7992">
        <ele>154</ele>
        <time>2023-01-08T18:08:57Z</time>
      </trkpt>
      <trkpt lat="48.86113" lon="1.79959">
        <ele>154</ele>
        <time>2023-01-08T18:10:02Z</time>
      </trkpt>
      <trkpt lat="48.86091" lon="1.79963">
        <ele>154</ele>
        <time>2023-01-08T18:10:32Z</time>
      </trkpt>
      <trkpt lat="48.86068" lon="1.79961">
        <ele>154</ele>
        <time>2023-01-08T18:11:02Z</time>
      </trkpt>
      <trkpt lat="48.86069" lon="1.79967">
        <ele>154</ele>
        <time>2023-01-08T18:11:08Z</time>
      </trkpt>
      <trkpt lat="48.86084" lon="1.79967">
        <ele>154</ele>
        <time>2023-01-08T18:11:28Z</time>
      </trkpt>
      <trkpt lat="48.86057" lon="1.79967">
        <ele>154</ele>
        <time>2023-01-08T18:12:04Z</time>
      </trkpt>
      <trkpt lat="48.86043" lon="1.79971">
        <ele>154</ele>
        <time>2023-01-08T18:12:23Z</time>
      </trkpt>
      <trkpt lat="48.86035" lon="1.7999">
        <ele>154</ele>
        <time>2023-01-08T18:12:43Z</time>
      </trkpt>
      <trkpt lat="48.8602" lon="1.79998">
        <ele>154</ele>
        <time>2023-01-08T18:13:04Z</time>
      </trkpt>
      <trkpt lat="48.85981" lon="1.79995">
        <ele>153</ele>
        <time>2023-01-08T18:13:56Z</time>
      </trkpt>
      <trkpt lat="48.85956" lon="1.8">
        <ele>152</ele>
        <time>2023-01-08T18:14:30Z</time>
      </trkpt>
      <trkpt lat="48.85936" lon="1.79995">
        <ele>151</ele>
        <time>2023-01-08T18:14:57Z</time>
      </trkpt>
      <trkpt lat="48.85923" lon="1.79998">
        <ele>151</ele>
        <time>2023-01-08T18:15:14Z</time>
      </trkpt>
      <trkpt lat="48.85914" lon="1.80006">
        <ele>151</ele>
        <time>2023-01-08T18:15:28Z</time>
      </trkpt>
      <trkpt lat="48.85897" lon="1.79998">
        <ele>150</ele>
        <time>2023-01-08T18:15:52Z</time>
      </trkpt>
      <trkpt lat="48.85887" lon="1.79998">
        <ele>150</ele>
        <time>2023-01-08T18:16:05Z</time>
      </trkpt>
      <trkpt lat="48.85879" lon="1.8001">
        <ele>150</ele>
        <time>2023-01-08T18:16:20Z</time>
      </trkpt>
      <trkpt lat="48.85881" lon="1.80028">
        <ele>151</ele>
        <time>2023-01-08T18:16:36Z</time>
      </trkpt>
      <trkpt lat="48.85887" lon="1.80037">
        <ele>152</ele>
        <time>2023-01-08T18:16:47Z</time>
      </trkpt>
      <trkpt lat="48.85878" lon="1.80019">
        <ele>151</ele>
        <time>2023-01-08T18:17:07Z</time>
      </trkpt>
      <trkpt lat="48.85867" lon="1.80021">
        <ele>150</ele>
        <time>2023-01-08T18:17:22Z</time>
      </trkpt>
      <trkpt lat="48.85852" lon="1.80031">
        <ele>150</ele>
        <time>2023-01-08T18:17:44Z</time>
      </trkpt>
      <trkpt lat="48.85811" lon="1.80075">
        <ele>150</ele>
        <time>2023-01-08T18:18:51Z</time>
      </trkpt>
      <trkpt lat="48.8577" lon="1.80096">
        <ele>148</ele>
        <time>2023-01-08T18:19:49Z</time>
      </trkpt>
      <trkpt lat="48.85728" lon="1.8011">
        <ele>146</ele>
        <time>2023-01-08T18:20:46Z</time>
      </trkpt>
      <trkpt lat="48.85687" lon="1.80144">
        <ele>145</ele>
        <time>2023-01-08T18:21:48Z</time>
      </trkpt>
      <trkpt lat="48.85687" lon="1.80153">
        <ele>145</ele>
        <time>2023-01-08T18:21:56Z</time>
      </trkpt>
      <trkpt lat="48.85711" lon="1.80191">
        <ele>146</ele>
        <time>2023-01-08T18:22:43Z</time>
      </trkpt>
      <trkpt lat="48.85736" lon="1.80255">
        <ele>149</ele>
        <time>2023-01-08T18:23:48Z</time>
      </trkpt>
      <trkpt lat="48.85757" lon="1.80292">
        <ele>152</ele>
        <time>2023-01-08T18:24:31Z</time>
      </trkpt>
      <trkpt lat="48.85764" lon="1.80334">
        <ele>153</ele>
        <time>2023-01-08T18:25:09Z</time>
      </trkpt>
      <trkpt lat="48.85774" lon="1.80347">
        <ele>154</ele>
        <time>2023-01-08T18:25:26Z</time>
      </trkpt>
      <trkpt lat="48.85779" lon="1.8037">
        <ele>155</ele>
        <time>2023-01-08T18:25:48Z</time>
      </trkpt>
      <trkpt lat="48.85805" lon="1.80427">
        <ele>159</ele>
        <time>2023-01-08T18:26:49Z</time>
      </trkpt>
      <trkpt lat="48.85812" lon="1.80457">
        <ele>162</ele>
        <time>2023-01-08T18:27:16Z</time>
      </trkpt>
      <trkpt lat="48.85824" lon="1.80486">
        <ele>166</ele>
        <time>2023-01-08T18:27:47Z</time>
      </trkpt>
      <trkpt lat="48.85838" lon="1.80498">
        <ele>168</ele>
        <time>2023-01-08T18:28:08Z</time>
      </trkpt>
      <trkpt lat="48.85861" lon="1.80538">
        <ele>173</ele>
        <time>2023-01-08T18:28:55Z</time>
      </trkpt>
      <trkpt lat="48.85864" lon="1.80558">
        <ele>175</ele>
        <time>2023-01-08T18:29:13Z</time>
      </trkpt>
      <trkpt lat="48.85861" lon="1.80584">
        <ele>176</ele>
        <time>2023-01-08T18:29:36Z</time>
      </trkpt>
      <trkpt lat="48.85871" lon="1.80603">
        <ele>177</ele>
        <time>2023-01-08T18:29:57Z</time>
      </trkpt>
      <trkpt lat="48.85884" lon="1.80611">
        <ele>178</ele>
        <time>2023-01-08T18:30:16Z</time>
      </trkpt>
      <trkpt lat="48.85893" lon="1.80631">
        <ele>179</ele>
        <time>2023-01-08T18:30:37Z</time>
      </trkpt>
      <trkpt lat="48.85909" lon="1.80701">
        <ele>180</ele>
        <time>2023-01-08T18:31:42Z</time>
      </trkpt>
      <trkpt lat="48.85894" lon="1.80725">
        <ele>180</ele>
        <time>2023-01-08T18:32:11Z</time>
      </trkpt>
      <trkpt lat="48.85891" lon="1.80772">
        <ele>180</ele>
        <time>2023-01-08T18:32:53Z</time>
      </trkpt>
      <trkpt lat="48.85895" lon="1.8077">
        <ele>180</ele>
        <time>2023-01-08T18:32:58Z</time>
      </trkpt>
      <trkpt lat="48.85901" lon="1.80784">
        <ele>181</ele>
        <time>2023-01-08T18:33:13Z</time>
      </trkpt>
      <trkpt lat="48.8592" lon="1.80801">
        <ele>181</ele>
        <time>2023-01-08T18:33:42Z</time>
      </trkpt>
      <trkpt lat="48.85945" lon="1.80814">
        <ele>181</ele>
        <time>2023-01-08T18:34:18Z</time>
      </trkpt>
      <trkpt lat="48.85955" lon="1.80836">
        <ele>181</ele>
        <time>2023-01-08T18:34:41Z</time>
      </trkpt>
      <trkpt lat="48.85988" lon="1.80856">
        <ele>181</ele>
        <time>2023-01-08T18:35:29Z</time>
      </trkpt>
      <trkpt lat="48.86001" lon="1.80875">
        <ele>180</ele>
        <time>2023-01-08T18:35:53Z</time>
      </trkpt>
      <trkpt lat="48.86041" lon="1.80908">
        <ele>179</ele>
        <time>2023-01-08T18:36:53Z</time>
      </trkpt>
      <trkpt lat="48.86064" lon="1.80945">
        <ele>178</ele>
        <time>2023-01-08T18:37:38Z</time>
      </trkpt>
      <trkpt lat="48.86075" lon="1.80957">
        <ele>177</ele>
        <time>2023-01-08T18:37:56Z</time>
      </trkpt>
      <trkpt lat="48.86094" lon="1.80968">
        <ele>176</ele>
        <time>2023-01-08T18:38:23Z</time>
      </trkpt>
      <trkpt lat="48.86127" lon="1.81012">
        <ele>171</ele>
        <time>2023-01-08T18:39:22Z</time>
      </trkpt>
      <trkpt lat="48.86135" lon="1.81033">
        <ele>168</ele>
        <time>2023-01-08T18:39:43Z</time>
      </trkpt>
      <trkpt lat="48.86138" lon="1.81064">
        <ele>165</ele>
        <time>2023-01-08T18:40:11Z</time>
      </trkpt>
      <trkpt lat="48.86123" lon="1.81119">
        <ele>162</ele>
        <time>2023-01-08T18:41:03Z</time>
      </trkpt>
      <trkpt lat="48.86126" lon="1.81146">
        <ele>161</ele>
        <time>2023-01-08T18:41:27Z</time>
      </trkpt>
      <trkpt lat="48.8604" lon="1.81359">
        <ele>155</ele>
        <time>2023-01-08T18:45:06Z</time>
      </trkpt>
      <trkpt lat="48.86033" lon="1.81431">
        <ele>153</ele>
        <time>2023-01-08T18:46:10Z</time>
      </trkpt>
      <trkpt lat="48.8601" lon="1.81502">
        <ele>152</ele>
        <time>2023-01-08T18:47:20Z</time>
      </trkpt>
      <trkpt lat="48.85996" lon="1.81533">
        <ele>152</ele>
        <time>2023-01-08T18:47:53Z</time>
      </trkpt>
      <trkpt lat="48.85984" lon="1.81667">
        <ele>149</ele>
        <time>2023-01-08T18:49:52Z</time>
      </trkpt>
      <trkpt lat="48.85968" lon="1.81705">
        <ele>148</ele>
        <time>2023-01-08T18:50:31Z</time>
      </trkpt>
      <trkpt lat="48.85963" lon="1.81742">
        <ele>147</ele>
        <time>2023-01-08T18:51:04Z</time>
      </trkpt>
      <trkpt lat="48.85946" lon="1.81795">
        <ele>145</ele>
        <time>2023-01-08T18:51:56Z</time>
      </trkpt>
      <trkpt lat="48.85947" lon="1.81815">
        <ele>144</ele>
        <time>2023-01-08T18:52:14Z</time>
      </trkpt>
      <trkpt lat="48.85969" lon="1.81853">
        <ele>142</ele>
        <time>2023-01-08T18:52:58Z</time>
      </trkpt>
      <trkpt lat="48.85997" lon="1.81882">
        <ele>140</ele>
        <time>2023-01-08T18:53:43Z</time>
      </trkpt>
      <trkpt lat="48.86007" lon="1.81879">
        <ele>140</ele>
        <time>2023-01-08T18:53:57Z</time>
      </trkpt>
      <trkpt lat="48.86019" lon="1.81864">
        <ele>140</ele>
        <time>2023-01-08T18:54:18Z</time>
      </trkpt>
      <trkpt lat="48.8604" lon="1.81852">
        <ele>139</ele>
        <time>2023-01-08T18:54:48Z</time>
      </trkpt>
      <trkpt lat="48.86044" lon="1.81851">
        <ele>139</ele>
        <time>2023-01-08T18:54:53Z</time>
      </trkpt>
      <trkpt lat="48.86051" lon="1.81857">
        <ele>138</ele>
        <time>2023-01-08T18:55:04Z</time>
      </trkpt>
      <trkpt lat="48.86067" lon="1.81877">
        <ele>137</ele>
        <time>2023-01-08T18:55:31Z</time>
      </trkpt>
      <trkpt lat="48.86076" lon="1.81903">
        <ele>136</ele>
        <time>2023-01-08T18:55:57Z</time>
      </trkpt>
      <trkpt lat="48.86113" lon="1.81978">
        <ele>133</ele>
        <time>2023-01-08T18:57:19Z</time>
      </trkpt>
      <trkpt lat="48.86194" lon="1.82074">
        <ele>128</ele>
        <time>2023-01-08T18:59:37Z</time>
      </trkpt>
      <trkpt lat="48.86234" lon="1.82133">
        <ele>127</ele>
        <time>2023-01-08T19:00:51Z</time>
      </trkpt>
      <trkpt lat="48.86291" lon="1.82225">
        <ele>126</ele>
        <time>2023-01-08T19:02:42Z</time>
      </trkpt>
      <trkpt lat="48.86318" lon="1.82278">
        <ele>126</ele>
        <time>2023-01-08T19:03:41Z</time>
      </trkpt>
      <trkpt lat="48.86348" lon="1.8237">
        <ele>126</ele>
        <time>2023-01-08T19:05:11Z</time>
      </trkpt>
      <trkpt lat="48.86382" lon="1.82495">
        <ele>127</ele>
        <time>2023-01-08T19:07:10Z</time>
      </trkpt>
      <trkpt lat="48.86394" lon="1.82568">
        <ele>129</ele>
        <time>2023-01-08T19:08:16Z</time>
      </trkpt>
      <trkpt lat="48.86397" lon="1.82659">
        <ele>128</ele>
        <time>2023-01-08T19:09:36Z</time>
      </trkpt>
      <trkpt lat="48.86409" lon="1.82792">
        <ele>129</ele>
        <time>2023-01-08T19:11:34Z</time>
      </trkpt>
      <trkpt lat="48.86411" lon="1.83094">
        <ele>128</ele>
        <time>2023-01-08T19:15:59Z</time>
      </trkpt>
      <trkpt lat="48.86416" lon="1.83121">
        <ele>128</ele>
        <time>2023-01-08T19:16:23Z</time>
      </trkpt>
      <trkpt lat="48.86415" lon="1.83214">
        <ele>128</ele>
        <time>2023-01-08T19:17:45Z</time>
      </trkpt>
      <trkpt lat="48.8642" lon="1.83295">
        <ele>129</ele>
        <time>2023-01-08T19:18:56Z</time>
      </trkpt>
      <trkpt lat="48.86419" lon="1.83433">
        <ele>131</ele>
        <time>2023-01-08T19:20:57Z</time>
      </trkpt>
      <trkpt lat="48.86424" lon="1.83496">
        <ele>131</ele>
        <time>2023-01-08T19:21:53Z</time>
      </trkpt>
      <trkpt lat="48.86426" lon="1.83713">
        <ele>132</ele>
        <time>2023-01-08T19:25:04Z</time>
      </trkpt>
      <trkpt lat="48.8644" lon="1.8376">
        <ele>133</ele>
        <time>2023-01-08T19:25:49Z</time>
      </trkpt>
      <trkpt lat="48.86449" lon="1.83808">
        <ele>134</ele>
        <time>2023-01-08T19:26:33Z</time>
      </trkpt>
      <trkpt lat="48.8646" lon="1.83834">
        <ele>134</ele>
        <time>2023-01-08T19:27:00Z</time>
      </trkpt>
      <trkpt lat="48.8648" lon="1.83905">
        <ele>132</ele>
        <time>2023-01-08T19:28:08Z</time>
      </trkpt>
      <trkpt lat="48.86497" lon="1.83981">
        <ele>131</ele>
        <time>2023-01-08T19:29:18Z</time>
      </trkpt>
      <trkpt lat="48.86517" lon="1.84037">
        <ele>131</ele>
        <time>2023-01-08T19:30:14Z</time>
      </trkpt>
      <trkpt lat="48.86528" lon="1.84094">
        <ele>132</ele>
        <time>2023-01-08T19:31:06Z</time>
      </trkpt>
      <trkpt lat="48.86537" lon="1.84112">
        <ele>131</ele>
        <time>2023-01-08T19:31:26Z</time>
      </trkpt>
      <trkpt lat="48.86582" lon="1.84292">
        <ele>127</ele>
        <time>2023-01-08T19:34:15Z</time>
      </trkpt>
      <trkpt lat="48.86607" lon="1.84372">
        <ele>126</ele>
        <time>2023-01-08T19:35:33Z</time>
      </trkpt>
      <trkpt lat="48.86625" lon="1.844">
        <ele>126</ele>
        <time>2023-01-08T19:36:07Z</time>
      </trkpt>
      <trkpt lat="48.86663" lon="1.84422">
        <ele>126</ele>
        <time>2023-01-08T19:37:02Z</time>
      </trkpt>
      <trkpt lat="48.86703" lon="1.84462">
        <ele>125</ele>
        <time>2023-01-08T19:38:05Z</time>
      </trkpt>
      <trkpt lat="48.86724" lon="1.845">
        <ele>125</ele>
        <time>2023-01-08T19:38:49Z</time>
      </trkpt>
      <trkpt lat="48.86759" lon="1.84579">
        <ele>123</ele>
        <time>2023-01-08T19:40:13Z</time>
      </trkpt>
      <trkpt lat="48.86827" lon="1.84681">
        <ele>122</ele>
        <time>2023-01-08T19:42:20Z</time>
      </trkpt>
      <trkpt lat="48.86925" lon="1.84795">
        <ele>123</ele>
        <time>2023-01-08T19:45:05Z</time>
      </trkpt>
      <trkpt lat="48.87003" lon="1.84894">
        <ele>122</ele>
        <time>2023-01-08T19:47:20Z</time>
      </trkpt>
      <trkpt lat="48.87021" lon="1.84911">
        <ele>122</ele>
        <time>2023-01-08T19:47:49Z</time>
      </trkpt>
      <trkpt lat="48.87072" lon="1.84981">
        <ele>119</ele>
        <time>2023-01-08T19:49:20Z</time>
      </trkpt>
      <trkpt lat="48.87123" lon="1.85042">
        <ele>116</ele>
        <time>2023-01-08T19:50:47Z</time>
      </trkpt>
      <trkpt lat="48.87233" lon="1.8515">
        <ele>112</ele>
        <time>2023-01-08T19:53:42Z</time>
      </trkpt>
      <trkpt lat="48.87272" lon="1.85211">
        <ele>111</ele>
        <time>2023-01-08T19:54:56Z</time>
      </trkpt>
      <trkpt lat="48.87316" lon="1.85291">
        <ele>112</ele>
        <time>2023-01-08T19:56:28Z</time>
      </trkpt>
      <trkpt lat="48.87382" lon="1.85372">
        <ele>114</ele>
        <time>2023-01-08T19:58:21Z</time>
      </trkpt>
      <trkpt lat="48.87381" lon="1.85367">
        <ele>114</ele>
        <time>2023-01-08T19:58:26Z</time>
      </trkpt>
      <trkpt lat="48.87381" lon="1.85389">
        <ele>114</ele>
        <time>2023-01-08T19:58:45Z</time>
      </trkpt>
      <trkpt lat="48.87391" lon="1.85444">
        <ele>114</ele>
        <time>2023-01-08T19:59:35Z</time>
      </trkpt>
      <trkpt lat="48.87394" lon="1.85502">
        <ele>114</ele>
        <time>2023-01-08T20:00:26Z</time>
      </trkpt>
      <trkpt lat="48.87408" lon="1.85579">
        <ele>112</ele>
        <time>2023-01-08T20:01:36Z</time>
      </trkpt>
      <trkpt lat="48.87477" lon="1.85783">
        <ele>113</ele>
        <time>2023-01-08T20:04:58Z</time>
      </trkpt>
      <trkpt lat="48.87539" lon="1.85882">
        <ele>115</ele>
        <time>2023-01-08T20:06:58Z</time>
      </trkpt>
      <trkpt lat="48.87565" lon="1.85896">
        <ele>116</ele>
        <time>2023-01-08T20:07:34Z</time>
      </trkpt>
      <trkpt lat="48.87618" lon="1.85944">
        <ele>117</ele>
        <time>2023-01-08T20:08:57Z</time>
      </trkpt>
      <trkpt lat="48.87696" lon="1.86001">
        <ele>117</ele>
        <time>2023-01-08T20:10:52Z</time>
      </trkpt>
      <trkpt lat="48.87787" lon="1.85993">
        <ele>119</ele>
        <time>2023-01-08T20:12:54Z</time>
      </trkpt>
      <trkpt lat="48.87817" lon="1.85985">
        <ele>120</ele>
        <time>2023-01-08T20:13:34Z</time>
      </trkpt>
      <trkpt lat="48.87864" lon="1.8598">
        <ele>121</ele>
        <time>2023-01-08T20:14:37Z</time>
      </trkpt>
      <trkpt lat="48.87868" lon="1.85986">
        <ele>121</ele>
        <time>2023-01-08T20:14:45Z</time>
      </trkpt>
      <trkpt lat="48.87868" lon="1.85999">
        <ele>121</ele>
        <time>2023-01-08T20:14:56Z</time>
      </trkpt>
      <trkpt lat="48.87861" lon="1.86014">
        <ele>121</ele>
        <time>2023-01-08T20:15:12Z</time>
      </trkpt>
      <trkpt lat="48.8787" lon="1.85976">
        <ele>121</ele>
        <time>2023-01-08T20:15:48Z</time>
      </trkpt>
      <trkpt lat="48.87896" lon="1.85974">
        <ele>122</ele>
        <time>2023-01-08T20:16:23Z</time>
      </trkpt>
      <trkpt lat="48.88012" lon="1.85949">
        <ele>124</ele>
        <time>2023-01-08T20:18:59Z</time>
      </trkpt>
      <trkpt lat="48.88028" lon="1.85949">
        <ele>124</ele>
        <time>2023-01-08T20:19:20Z</time>
      </trkpt>
      <trkpt lat="48.88053" lon="1.8594">
        <ele>123</ele>
        <time>2023-01-08T20:19:55Z</time>
      </trkpt>
      <trkpt lat="48.88063" lon="1.85917">
        <ele>123</ele>
        <time>2023-01-08T20:20:19Z</time>
      </trkpt>
      <trkpt lat="48.88061" lon="1.85877">
        <ele>123</ele>
        <time>2023-01-08T20:20:54Z</time>
      </trkpt>
      <trkpt lat="48.8807" lon="1.85867">
        <ele>123</ele>
        <time>2023-01-08T20:21:09Z</time>
      </trkpt>
      <trkpt lat="48.88089" lon="1.85887">
        <ele>123</ele>
        <time>2023-01-08T20:21:40Z</time>
      </trkpt>
      <trkpt lat="48.88094" lon="1.85903">
        <ele>123</ele>
        <time>2023-01-08T20:21:55Z</time>
      </trkpt>
      <trkpt lat="48.88118" lon="1.85924">
        <ele>122</ele>
        <time>2023-01-08T20:22:32Z</time>
      </trkpt>
      <trkpt lat="48.88133" lon="1.85948">
        <ele>121</ele>
        <time>2023-01-08T20:23:01Z</time>
      </trkpt>
      <trkpt lat="48.88162" lon="1.85976">
        <ele>120</ele>
        <time>2023-01-08T20:23:47Z</time>
      </trkpt>
      <trkpt lat="48.88171" lon="1.85994">
        <ele>120</ele>
        <time>2023-01-08T20:24:07Z</time>
      </trkpt>
      <trkpt lat="48.88207" lon="1.86025">
        <ele>118</ele>
        <time>2023-01-08T20:25:02Z</time>
      </trkpt>
      <trkpt lat="48.88246" lon="1.86028">
        <ele>116</ele>
        <time>2023-01-08T20:25:54Z</time>
      </trkpt>
      <trkpt lat="48.88261" lon="1.86035">
        <ele>114</ele>
        <time>2023-01-08T20:26:15Z</time>
      </trkpt>
      <trkpt lat="48.8827" lon="1.86035">
        <ele>114</ele>
        <time>2023-01-08T20:26:27Z</time>
      </trkpt>
      <trkpt lat="48.88282" lon="1.86024">
        <ele>113</ele>
        <time>2023-01-08T20:26:46Z</time>
      </trkpt>
      <trkpt lat="48.88316" lon="1.8603">
        <ele>110</ele>
        <time>2023-01-08T20:27:32Z</time>
      </trkpt>
      <trkpt lat="48.88331" lon="1.86027">
        <ele>109</ele>
        <time>2023-01-08T20:27:52Z</time>
      </trkpt>
      <trkpt lat="48.88348" lon="1.86032">
        <ele>106</ele>
        <time>2023-01-08T20:28:15Z</time>
      </trkpt>
      <trkpt lat="48.88365" lon="1.86022">
        <ele>104</ele>
        <time>2023-01-08T20:28:39Z</time>
      </trkpt>
      <trkpt lat="48.88381" lon="1.8602">
        <ele>101</ele>
        <time>2023-01-08T20:29:01Z</time>
      </trkpt>
      <trkpt lat="48.88402" lon="1.86028">
        <ele>98</ele>
        <time>2023-01-08T20:29:29Z</time>
      </trkpt>
      <trkpt lat="48.88418" lon="1.86027">
        <ele>96</ele>
        <time>2023-01-08T20:29:51Z</time>
      </trkpt>
      <trkpt lat="48.88436" lon="1.86034">
        <ele>93</ele>
        <time>2023-01-08T20:30:16Z</time>
      </trkpt>
      <trkpt lat="48.88459" lon="1.86036">
        <ele>89</ele>
        <time>2023-01-08T20:30:46Z</time>
      </trkpt>
      <trkpt lat="48.88468" lon="1.86041">
        <ele>87</ele>
        <time>2023-01-08T20:30:59Z</time>
      </trkpt>
      <trkpt lat="48.88476" lon="1.86052">
        <ele>86</ele>
        <time>2023-01-08T20:31:14Z</time>
      </trkpt>
      <trkpt lat="48.8849" lon="1.86054">
        <ele>83</ele>
        <time>2023-01-08T20:31:32Z</time>
      </trkpt>
      <trkpt lat="48.88493" lon="1.86052">
        <ele>83</ele>
        <time>2023-01-08T20:31:37Z</time>
      </trkpt>
      <trkpt lat="48.88492" lon="1.8604">
        <ele>83</ele>
        <time>2023-01-08T20:31:47Z</time>
      </trkpt>
      <trkpt lat="48.88505" lon="1.86013">
        <ele>81</ele>
        <time>2023-01-08T20:32:17Z</time>
      </trkpt>
      <trkpt lat="48.88522" lon="1.85989">
        <ele>82</ele>
        <time>2023-01-08T20:32:48Z</time>
      </trkpt>
      <trkpt lat="48.88556" lon="1.85954">
        <ele>84</ele>
        <time>2023-01-08T20:33:42Z</time>
      </trkpt>
      <trkpt lat="48.88577" lon="1.85954">
        <ele>84</ele>
        <time>2023-01-08T20:34:10Z</time>
      </trkpt>
      <trkpt lat="48.88593" lon="1.85942">
        <ele>87</ele>
        <time>2023-01-08T20:34:34Z</time>
      </trkpt>
      <trkpt lat="48.88609" lon="1.85941">
        <ele>89</ele>
        <time>2023-01-08T20:34:56Z</time>
      </trkpt>
      <trkpt lat="48.8864" lon="1.85927">
        <ele>94</ele>
        <time>2023-01-08T20:35:39Z</time>
      </trkpt>
      <trkpt lat="48.88708" lon="1.85941">
        <ele>100</ele>
        <time>2023-01-08T20:37:10Z</time>
      </trkpt>
      <trkpt lat="48.88733" lon="1.85928">
        <ele>103</ele>
        <time>2023-01-08T20:37:46Z</time>
      </trkpt>
      <trkpt lat="48.88735" lon="1.8593">
        <ele>103</ele>
        <time>2023-01-08T20:37:49Z</time>
      </trkpt>
      <trkpt lat="48.88745" lon="1.85922">
        <ele>104</ele>
        <time>2023-01-08T20:38:04Z</time>
      </trkpt>
      <trkpt lat="48.88768" lon="1.85918">
        <ele>105</ele>
        <time>2023-01-08T20:38:35Z</time>
      </trkpt>
      <trkpt lat="48.8879" lon="1.85905">
        <ele>106</ele>
        <time>2023-01-08T20:39:06Z</time>
      </trkpt>
      <trkpt lat="48.88826" lon="1.85897">
        <ele>107</ele>
        <time>2023-01-08T20:39:55Z</time>
      </trkpt>
      <trkpt lat="48.88923" lon="1.85861">
        <ele>111</ele>
        <time>2023-01-08T20:42:08Z</time>
      </trkpt>
      <trkpt lat="48.8896" lon="1.85862">
        <ele>110</ele>
        <time>2023-01-08T20:42:57Z</time>
      </trkpt>
      <trkpt lat="48.89064" lon="1.85852">
        <ele>107</ele>
        <time>2023-01-08T20:45:17Z</time>
      </trkpt>
      <trkpt lat="48.89272" lon="1.85853">
        <ele>109</ele>
        <time>2023-01-08T20:49:54Z</time>
      </trkpt>
      <trkpt lat="48.89355" lon="1.85843">
        <ele>111</ele>
        <time>2023-01-08T20:51:45Z</time>
      </trkpt>
      <trkpt lat="48.89389" lon="1.85835">
        <ele>111</ele>
        <time>2023-01-08T20:52:31Z</time>
      </trkpt>
      <trkpt lat="48.89471" lon="1.85834">
        <ele>110</ele>
        <time>2023-01-08T20:54:21Z</time>
      </trkpt>
      <trkpt lat="48.89511" lon="1.85829">
        <ele>110</ele>
        <time>2023-01-08T20:55:14Z</time>
      </trkpt>
      <trkpt lat="48.89642" lon="1.85828">
        <ele>105</ele>
        <time>2023-01-08T20:58:09Z</time>
      </trkpt>
      <trkpt lat="48.89759" lon="1.85793">
        <ele>100</ele>
        <time>2023-01-08T21:00:48Z</time>
      </trkpt>
      <trkpt lat="48.89808" lon="1.85772">
        <ele>98</ele>
        <time>2023-01-08T21:01:56Z</time>
      </trkpt>
      <trkpt lat="48.89856" lon="1.85742">
        <ele>98</ele>
        <time>2023-01-08T21:03:05Z</time>
      </trkpt>
      <trkpt lat="48.89871" lon="1.85737">
        <ele>97</ele>
        <time>2023-01-08T21:03:26Z</time>
      </trkpt>
      <trkpt lat="48.8996" lon="1.85676">
        <ele>97</ele>
        <time>2023-01-08T21:05:36Z</time>
      </trkpt>
      <trkpt lat="48.90021" lon="1.85628">
        <ele>98</ele>
        <time>2023-01-08T21:07:08Z</time>
      </trkpt>
      <trkpt lat="48.90059" lon="1.8559">
        <ele>99</ele>
        <time>2023-01-08T21:08:08Z</time>
      </trkpt>
      <trkpt lat="48.90142" lon="1.85536">
        <ele>100</ele>
        <time>2023-01-08T21:10:09Z</time>
      </trkpt>
      <trkpt lat="48.90169" lon="1.85513">
        <ele>99</ele>
        <time>2023-01-08T21:10:50Z</time>
      </trkpt>
      <trkpt lat="48.90189" lon="1.85489">
        <ele>98</ele>
        <time>2023-01-08T21:11:24Z</time>
      </trkpt>
      <trkpt lat="48.90193" lon="1.85491">
        <ele>98</ele>
        <time>2023-01-08T21:11:30Z</time>
      </trkpt>
      <trkpt lat="48.90198" lon="1.85487">
        <ele>98</ele>
        <time>2023-01-08T21:11:37Z</time>
      </trkpt>
      <trkpt lat="48.90209" lon="1.85473">
        <ele>97</ele>
        <time>2023-01-08T21:11:56Z</time>
      </trkpt>
      <trkpt lat="48.90322" lon="1.85403">
        <ele>93</ele>
        <time>2023-01-08T21:14:39Z</time>
      </trkpt>
      <trkpt lat="48.90358" lon="1.85387">
        <ele>89</ele>
        <time>2023-01-08T21:15:29Z</time>
      </trkpt>
      <trkpt lat="48.90381" lon="1.85366">
        <ele>88</ele>
        <time>2023-01-08T21:16:05Z</time>
      </trkpt>
      <trkpt lat="48.90411" lon="1.85316">
        <ele>89</ele>
        <time>2023-01-08T21:17:04Z</time>
      </trkpt>
      <trkpt lat="48.90442" lon="1.85248">
        <ele>85</ele>
        <time>2023-01-08T21:18:17Z</time>
      </trkpt>
      <trkpt lat="48.90467" lon="1.85209">
        <ele>82</ele>
        <time>2023-01-08T21:19:05Z</time>
      </trkpt>
      <trkpt lat="48.90492" lon="1.85155">
        <ele>82</ele>
        <time>2023-01-08T21:20:03Z</time>
      </trkpt>
      <trkpt lat="48.9051" lon="1.85126">
        <ele>82</ele>
        <time>2023-01-08T21:20:38Z</time>
      </trkpt>
      <trkpt lat="48.90527" lon="1.85085">
        <ele>82</ele>
        <time>2023-01-08T21:21:20Z</time>
      </trkpt>
      <trkpt lat="48.90537" lon="1.85071">
        <ele>79</ele>
        <time>2023-01-08T21:21:38Z</time>
      </trkpt>
      <trkpt lat="48.9055" lon="1.85065">
        <ele>76</ele>
        <time>2023-01-08T21:21:56Z</time>
      </trkpt>
      <trkpt lat="48.90565" lon="1.85039">
        <ele>72</ele>
        <time>2023-01-08T21:22:27Z</time>
      </trkpt>
      <trkpt lat="48.90578" lon="1.8503">
        <ele>69</ele>
        <time>2023-01-08T21:22:46Z</time>
      </trkpt>
      <trkpt lat="48.90584" lon="1.8502">
        <ele>68</ele>
        <time>2023-01-08T21:22:58Z</time>
      </trkpt>
      <trkpt lat="48.90586" lon="1.84999">
        <ele>69</ele>
        <time>2023-01-08T21:23:16Z</time>
      </trkpt>
      <trkpt lat="48.90595" lon="1.84983">
        <ele>67</ele>
        <time>2023-01-08T21:23:35Z</time>
      </trkpt>
      <trkpt lat="48.90629" lon="1.84943">
        <ele>60</ele>
        <time>2023-01-08T21:24:32Z</time>
      </trkpt>
      <trkpt lat="48.90673" lon="1.84873">
        <ele>50</ele>
        <time>2023-01-08T21:25:57Z</time>
      </trkpt>
      <trkpt lat="48.90684" lon="1.84864">
        <ele>49</ele>
        <time>2023-01-08T21:26:14Z</time>
      </trkpt>
      <trkpt lat="48.9069" lon="1.84841">
        <ele>48</ele>
        <time>2023-01-08T21:26:36Z</time>
      </trkpt>
      <trkpt lat="48.90716" lon="1.848">
        <ele>48</ele>
        <time>2023-01-08T21:27:25Z</time>
      </trkpt>
      <trkpt lat="48.90726" lon="1.84767">
        <ele>49</ele>
        <time>2023-01-08T21:27:57Z</time>
      </trkpt>
      <trkpt lat="48.90768" lon="1.84686">
        <ele>56</ele>
        <time>2023-01-08T21:29:28Z</time>
      </trkpt>
      <trkpt lat="48.90774" lon="1.84684">
        <ele>56</ele>
        <time>2023-01-08T21:29:36Z</time>
      </trkpt>
      <trkpt lat="48.90788" lon="1.8469">
        <ele>56</ele>
        <time>2023-01-08T21:29:55Z</time>
      </trkpt>
      <trkpt lat="48.9084" lon="1.84722">
        <ele>55</ele>
        <time>2023-01-08T21:31:10Z</time>
      </trkpt>
      <trkpt lat="48.9085" lon="1.84734">
        <ele>55</ele>
        <time>2023-01-08T21:31:27Z</time>
      </trkpt>
      <trkpt lat="48.90887" lon="1.84749">
        <ele>54</ele>
        <time>2023-01-08T21:32:18Z</time>
      </trkpt>
      <trkpt lat="48.90942" lon="1.84666">
        <ele>58</ele>
        <time>2023-01-08T21:34:02Z</time>
      </trkpt>
      <trkpt lat="48.91011" lon="1.846">
        <ele>56</ele>
        <time>2023-01-08T21:35:51Z</time>
      </trkpt>
      <trkpt lat="48.91052" lon="1.84569">
        <ele>55</ele>
        <time>2023-01-08T21:36:52Z</time>
      </trkpt>
      <trkpt lat="48.91063" lon="1.84551">
        <ele>56</ele>
        <time>2023-01-08T21:37:13Z</time>
      </trkpt>
      <trkpt lat="48.91086" lon="1.84537">
        <ele>56</ele>
        <time>2023-01-08T21:37:46Z</time>
      </trkpt>
      <trkpt lat="48.91127" lon="1.84502">
        <ele>56</ele>
        <time>2023-01-08T21:38:49Z</time>
      </trkpt>
      <trkpt lat="48.91185" lon="1.84444">
        <ele>56</ele>
        <time>2023-01-08T21:40:22Z</time>
      </trkpt>
      <trkpt lat="48.9119" lon="1.84442">
        <ele>56</ele>
        <time>2023-01-08T21:40:29Z</time>
      </trkpt>
      <trkpt lat="48.91194" lon="1.84462">
        <ele>54</ele>
        <time>2023-01-08T21:40:47Z</time>
      </trkpt>
      <trkpt lat="48.91212" lon="1.84498">
        <ele>49</ele>
        <time>2023-01-08T21:41:27Z</time>
      </trkpt>
      <trkpt lat="48.91255" lon="1.84463">
        <ele>48</ele>
        <time>2023-01-08T21:42:32Z</time>
      </trkpt>
      <trkpt lat="48.91298" lon="1.84437">
        <ele>47</ele>
        <time>2023-01-08T21:43:33Z</time>
      </trkpt>
      <trkpt lat="48.913" lon="1.84425">
        <ele>48</ele>
        <time>2023-01-08T21:43:44Z</time>
      </trkpt>
      <trkpt lat="48.91294" lon="1.84398">
        <ele>51</ele>
        <time>2023-01-08T21:44:09Z</time>
      </trkpt>
      <trkpt lat="48.91269" lon="1.84319">
        <ele>60</ele>
        <time>2023-01-08T21:45:26Z</time>
      </trkpt>
      <trkpt lat="48.9127" lon="1.84292">
        <ele>63</ele>
        <time>2023-01-08T21:45:50Z</time>
      </trkpt>
      <trkpt lat="48.9128" lon="1.84268">
        <ele>65</ele>
        <time>2023-01-08T21:46:15Z</time>
      </trkpt>
      <trkpt lat="48.91333" lon="1.8419">
        <ele>74</ele>
        <time>2023-01-08T21:47:53Z</time>
      </trkpt>
      <trkpt lat="48.91351" lon="1.8415">
        <ele>80</ele>
        <time>2023-01-08T21:48:36Z</time>
      </trkpt>
      <trkpt lat="48.91361" lon="1.84116">
        <ele>87</ele>
        <time>2023-01-08T21:49:08Z</time>
      </trkpt>
      <trkpt lat="48.91419" lon="1.84047">
        <ele>95</ele>
        <time>2023-01-08T21:50:47Z</time>
      </trkpt>
      <trkpt lat="48.91429" lon="1.84029">
        <ele>98</ele>
        <time>2023-01-08T21:51:07Z</time>
      </trkpt>
      <trkpt lat="48.91442" lon="1.83957">
        <ele>107</ele>
        <time>2023-01-08T21:52:13Z</time>
      </trkpt>
      <trkpt lat="48.9145" lon="1.83937">
        <ele>109</ele>
        <time>2023-01-08T21:52:33Z</time>
      </trkpt>
      <trkpt lat="48.91465" lon="1.83916">
        <ele>111</ele>
        <time>2023-01-08T21:53:00Z</time>
      </trkpt>
      <trkpt lat="48.91474" lon="1.83879">
        <ele>113</ele>
        <time>2023-01-08T21:53:35Z</time>
      </trkpt>
      <trkpt lat="48.91482" lon="1.83814">
        <ele>114</ele>
        <time>2023-01-08T21:54:33Z</time>
      </trkpt>
      <trkpt lat="48.915" lon="1.83752">
        <ele>114</ele>
        <time>2023-01-08T21:55:32Z</time>
      </trkpt>
      <trkpt lat="48.91496" lon="1.83758">
        <ele>114</ele>
        <time>2023-01-08T21:55:40Z</time>
      </trkpt>
      <trkpt lat="48.91494" lon="1.83812">
        <ele>115</ele>
        <time>2023-01-08T21:56:27Z</time>
      </trkpt>
      <trkpt lat="48.91492" lon="1.8382">
        <ele>115</ele>
        <time>2023-01-08T21:56:35Z</time>
      </trkpt>
      <trkpt lat="48.91498" lon="1.83792">
        <ele>114</ele>
        <time>2023-01-08T21:57:01Z</time>
      </trkpt>
      <trkpt lat="48.91501" lon="1.8375">
        <ele>114</ele>
        <time>2023-01-08T21:57:38Z</time>
      </trkpt>
      <trkpt lat="48.91498" lon="1.8375">
        <ele>114</ele>
        <time>2023-01-08T21:57:42Z</time>
      </trkpt>
      <trkpt lat="48.91513" lon="1.83746">
        <ele>114</ele>
        <time>2023-01-08T21:58:02Z</time>
      </trkpt>
      <trkpt lat="48.9157" lon="1.83672">
        <ele>112</ele>
        <time>2023-01-08T21:59:42Z</time>
      </trkpt>
      <trkpt lat="48.91596" lon="1.83597">
        <ele>110</ele>
        <time>2023-01-08T22:00:56Z</time>
      </trkpt>
      <trkpt lat="48.91629" lon="1.83531">
        <ele>108</ele>
        <time>2023-01-08T22:02:09Z</time>
      </trkpt>
      <trkpt lat="48.9164" lon="1.83491">
        <ele>107</ele>
        <time>2023-01-08T22:02:47Z</time>
      </trkpt>
      <trkpt lat="48.91659" lon="1.83457">
        <ele>107</ele>
        <time>2023-01-08T22:03:26Z</time>
      </trkpt>
      <trkpt lat="48.91679" lon="1.83433">
        <ele>107</ele>
        <time>2023-01-08T22:04:00Z</time>
      </trkpt>
      <trkpt lat="48.91708" lon="1.83413">
        <ele>107</ele>
        <time>2023-01-08T22:04:43Z</time>
      </trkpt>
      <trkpt lat="48.91721" lon="1.83399">
        <ele>108</ele>
        <time>2023-01-08T22:05:04Z</time>
      </trkpt>
      <trkpt lat="48.91742" lon="1.83384">
        <ele>108</ele>
        <time>2023-01-08T22:05:35Z</time>
      </trkpt>
      <trkpt lat="48.91758" lon="1.83378">
        <ele>108</ele>
        <time>2023-01-08T22:05:57Z</time>
      </trkpt>
      <trkpt lat="48.91799" lon="1.83384">
        <ele>109</ele>
        <time>2023-01-08T22:06:52Z</time>
      </trkpt>
      <trkpt lat="48.91861" lon="1.83409">
        <ele>110</ele>
        <time>2023-01-08T22:08:18Z</time>
      </trkpt>
      <trkpt lat="48.91879" lon="1.83425">
        <ele>110</ele>
        <time>2023-01-08T22:08:45Z</time>
      </trkpt>
      <trkpt lat="48.91916" lon="1.83473">
        <ele>108</ele>
        <time>2023-01-08T22:09:50Z</time>
      </trkpt>
      <trkpt lat="48.9196" lon="1.83506">
        <ele>108</ele>
        <time>2023-01-08T22:10:56Z</time>
      </trkpt>
      <trkpt lat="48.92" lon="1.83527">
        <ele>108</ele>
        <time>2023-01-08T22:11:52Z</time>
      </trkpt>
      <trkpt lat="48.92014" lon="1.83539">
        <ele>108</ele>
        <time>2023-01-08T22:12:14Z</time>
      </trkpt>
      <trkpt lat="48.9202" lon="1.83554">
        <ele>108</ele>
        <time>2023-01-08T22:12:29Z</time>
      </trkpt>
      <trkpt lat="48.92015" lon="1.83636">
        <ele>104</ele>
        <time>2023-01-08T22:13:41Z</time>
      </trkpt>
      <trkpt lat="48.92021" lon="1.83651">
        <ele>104</ele>
        <time>2023-01-08T22:13:57Z</time>
      </trkpt>
      <trkpt lat="48.921" lon="1.83676">
        <ele>102</ele>
        <time>2023-01-08T22:15:44Z</time>
      </trkpt>
      <trkpt lat="48.92163" lon="1.83686">
        <ele>103</ele>
        <time>2023-01-08T22:17:09Z</time>
      </trkpt>
      <trkpt lat="48.92181" lon="1.8371">
        <ele>102</ele>
        <time>2023-01-08T22:17:41Z</time>
      </trkpt>
      <trkpt lat="48.92204" lon="1.83731">
        <ele>101</ele>
        <time>2023-01-08T22:18:17Z</time>
      </trkpt>
      <trkpt lat="48.92248" lon="1.83754">
        <ele>102</ele>
        <time>2023-01-08T22:19:19Z</time>
      </trkpt>
      <trkpt lat="48.92262" lon="1.83767">
        <ele>102</ele>
        <time>2023-01-08T22:19:41Z</time>
      </trkpt>
      <trkpt lat="48.92296" lon="1.83788">
        <ele>102</ele>
        <time>2023-01-08T22:20:30Z</time>
      </trkpt>
      <trkpt lat="48.92331" lon="1.83797">
        <ele>103</ele>
        <time>2023-01-08T22:21:17Z</time>
      </trkpt>
      <trkpt lat="48.92359" lon="1.83825">
        <ele>103</ele>
        <time>2023-01-08T22:22:02Z</time>
      </trkpt>
      <trkpt lat="48.92407" lon="1.83838">
        <ele>104</ele>
        <time>2023-01-08T22:23:07Z</time>
      </trkpt>
      <trkpt lat="48.92419" lon="1.83853">
        <ele>103</ele>
        <time>2023-01-08T22:23:27Z</time>
      </trkpt>
      <trkpt lat="48.92446" lon="1.83875">
        <ele>100</ele>
        <time>2023-01-08T22:24:08Z</time>
      </trkpt>
      <trkpt lat="48.92468" lon="1.83879">
        <ele>98</ele>
        <time>2023-01-08T22:24:38Z</time>
      </trkpt>
      <trkpt lat="48.92493" lon="1.8387">
        <ele>99</ele>
        <time>2023-01-08T22:25:12Z</time>
      </trkpt>
      <trkpt lat="48.9251" lon="1.83879">
        <ele>97</ele>
        <time>2023-01-08T22:25:36Z</time>
      </trkpt>
      <trkpt lat="48.92522" lon="1.83896">
        <ele>93</ele>
        <time>2023-01-08T22:25:58Z</time>
      </trkpt>
      <trkpt lat="48.92531" lon="1.83967">
        <ele>84</ele>
        <time>2023-01-08T22:27:01Z</time>
      </trkpt>
      <trkpt lat="48.92538" lon="1.83987">
        <ele>82</ele>
        <time>2023-01-08T22:27:21Z</time>
      </trkpt>
      <trkpt lat="48.92567" lon="1.84029">
        <ele>76</ele>
        <time>2023-01-08T22:28:15Z</time>
      </trkpt>
      <trkpt lat="48.9258" lon="1.8403">
        <ele>75</ele>
        <time>2023-01-08T22:28:32Z</time>
      </trkpt>
      <trkpt lat="48.926" lon="1.84017">
        <ele>76</ele>
        <time>2023-01-08T22:29:01Z</time>
      </trkpt>
      <trkpt lat="48.92612" lon="1.84017">
        <ele>75</ele>
        <time>2023-01-08T22:29:17Z</time>
      </trkpt>
      <trkpt lat="48.92644" lon="1.84004">
        <ele>75</ele>
        <time>2023-01-08T22:30:01Z</time>
      </trkpt>
      <trkpt lat="48.92689" lon="1.83976">
        <ele>73</ele>
        <time>2023-01-08T22:31:06Z</time>
      </trkpt>
      <trkpt lat="48.92715" lon="1.83948">
        <ele>70</ele>
        <time>2023-01-08T22:31:49Z</time>
      </trkpt>
      <trkpt lat="48.92715" lon="1.83952">
        <ele>70</ele>
        <time>2023-01-08T22:31:52Z</time>
      </trkpt>
      <trkpt lat="48.92721" lon="1.8395">
        <ele>68</ele>
        <time>2023-01-08T22:32:00Z</time>
      </trkpt>
      <trkpt lat="48.92731" lon="1.8394">
        <ele>67</ele>
        <time>2023-01-08T22:32:16Z</time>
      </trkpt>
      <trkpt lat="48.9274" lon="1.8392">
        <ele>67</ele>
        <time>2023-01-08T22:32:38Z</time>
      </trkpt>
      <trkpt lat="48.92785" lon="1.83869">
        <ele>64</ele>
        <time>2023-01-08T22:33:52Z</time>
      </trkpt>
      <trkpt lat="48.92792" lon="1.83852">
        <ele>64</ele>
        <time>2023-01-08T22:34:10Z</time>
      </trkpt>
      <trkpt lat="48.92797" lon="1.83854">
        <ele>62</ele>
        <time>2023-01-08T22:34:17Z</time>
      </trkpt>
      <trkpt lat="48.92809" lon="1.83873">
        <ele>58</ele>
        <time>2023-01-08T22:34:40Z</time>
      </trkpt>
      <trkpt lat="48.92835" lon="1.83944">
        <ele>46</ele>
        <time>2023-01-08T22:35:51Z</time>
      </trkpt>
      <trkpt lat="48.92844" lon="1.83959">
        <ele>43</ele>
        <time>2023-01-08T22:36:09Z</time>
      </trkpt>
      <trkpt lat="48.92869" lon="1.83959">
        <ele>40</ele>
        <time>2023-01-08T22:36:43Z</time>
      </trkpt>
      <trkpt lat="48.92885" lon="1.83948">
        <ele>40</ele>
        <time>2023-01-08T22:37:06Z</time>
      </trkpt>
      <trkpt lat="48.92888" lon="1.83941">
        <ele>40</ele>
        <time>2023-01-08T22:37:13Z</time>
      </trkpt>
      <trkpt lat="48.9289" lon="1.83947">
        <ele>39</ele>
        <time>2023-01-08T22:37:19Z</time>
      </trkpt>
      <trkpt lat="48.92898" lon="1.83941">
        <ele>39</ele>
        <time>2023-01-08T22:37:31Z</time>
      </trkpt>
      <trkpt lat="48.92893" lon="1.83944">
        <ele>39</ele>
        <time>2023-01-08T22:37:38Z</time>
      </trkpt>
      <trkpt lat="48.92893" lon="1.83964">
        <ele>37</ele>
        <time>2023-01-08T22:37:56Z</time>
      </trkpt>
      <trkpt lat="48.929" lon="1.8398">
        <ele>35</ele>
        <time>2023-01-08T22:38:13Z</time>
      </trkpt>
      <trkpt lat="48.92913" lon="1.84042">
        <ele>30</ele>
        <time>2023-01-08T22:39:10Z</time>
      </trkpt>
      <trkpt lat="48.92925" lon="1.84057">
        <ele>30</ele>
        <time>2023-01-08T22:39:30Z</time>
      </trkpt>
      <trkpt lat="48.9293" lon="1.84094">
        <ele>29</ele>
        <time>2023-01-08T22:40:04Z</time>
      </trkpt>
      <trkpt lat="48.92951" lon="1.84135">
        <ele>28</ele>
        <time>2023-01-08T22:40:49Z</time>
      </trkpt>
      <trkpt lat="48.92952" lon="1.84164">
        <ele>27</ele>
        <time>2023-01-08T22:41:15Z</time>
      </trkpt>
      <trkpt lat="48.92942" lon="1.8421">
        <ele>27</ele>
        <time>2023-01-08T22:41:57Z</time>
      </trkpt>
      <trkpt lat="48.92934" lon="1.84222">
        <ele>26</ele>
        <time>2023-01-08T22:42:12Z</time>
      </trkpt>
      <trkpt lat="48.92926" lon="1.84272">
        <ele>26</ele>
        <time>2023-01-08T22:42:57Z</time>
      </trkpt>
      <trkpt lat="48.92889" lon="1.84312">
        <ele>27</ele>
        <time>2023-01-08T22:43:58Z</time>
      </trkpt>
      <trkpt lat="48.92897" lon="1.84359">
        <ele>27</ele>
        <time>2023-01-08T22:44:40Z</time>
      </trkpt>
      <trkpt lat="48.92885" lon="1.84378">
        <ele>28</ele>
        <time>2023-01-08T22:45:03Z</time>
      </trkpt>
      <trkpt lat="48.92864" lon="1.84387">
        <ele>28</ele>
        <time>2023-01-08T22:45:33Z</time>
      </trkpt>
      <trkpt lat="48.92854" lon="1.84399">
        <ele>28</ele>
        <time>2023-01-08T22:45:50Z</time>
      </trkpt>
      <trkpt lat="48.92832" lon="1.8441">
        <ele>28</ele>
        <time>2023-01-08T22:46:20Z</time>
      </trkpt>
      <trkpt lat="48.92845" lon="1.84401">
        <ele>28</ele>
        <time>2023-01-08T22:46:39Z</time>
      </trkpt>
      <trkpt lat="48.92836" lon="1.84397">
        <ele>28</ele>
        <time>2023-01-08T22:46:52Z</time>
      </trkpt>
      <trkpt lat="48.92846" lon="1.84396">
        <ele>28</ele>
        <time>2023-01-08T22:47:05Z</time>
      </trkpt>
      <trkpt lat="48.92856" lon="1.84387">
        <ele>28</ele>
        <time>2023-01-08T22:47:21Z</time>
      </trkpt>
      <trkpt lat="48.92875" lon="1.84379">
        <ele>28</ele>
        <time>2023-01-08T22:47:47Z</time>
      </trkpt>
      <trkpt lat="48.9289" lon="1.84375">
        <ele>28</ele>
        <time>2023-01-08T22:48:07Z</time>
      </trkpt>
      <trkpt lat="48.929" lon="1.84384">
        <ele>28</ele>
        <time>2023-01-08T22:48:23Z</time>
      </trkpt>
      <trkpt lat="48.92908" lon="1.84427">
        <ele>28</ele>
        <time>2023-01-08T22:49:02Z</time>
      </trkpt>
      <trkpt lat="48.92893" lon="1.8451">
        <ele>27</ele>
        <time>2023-01-08T22:50:18Z</time>
      </trkpt>
      <trkpt lat="48.929" lon="1.84539">
        <ele>27</ele>
        <time>2023-01-08T22:50:45Z</time>
      </trkpt>
      <trkpt lat="48.92916" lon="1.84571">
        <ele>28</ele>
        <time>2023-01-08T22:51:20Z</time>
      </trkpt>
      <trkpt lat="48.92925" lon="1.84608">
        <ele>30</ele>
        <time>2023-01-08T22:51:55Z</time>
      </trkpt>
      <trkpt lat="48.92942" lon="1.84647">
        <ele>34</ele>
        <time>2023-01-08T22:52:36Z</time>
      </trkpt>
      <trkpt lat="48.92941" lon="1.84667">
        <ele>35</ele>
        <time>2023-01-08T22:52:53Z</time>
      </trkpt>
      <trkpt lat="48.9295" lon="1.84685">
        <ele>37</ele>
        <time>2023-01-08T22:53:13Z</time>
      </trkpt>
      <trkpt lat="48.92948" lon="1.84714">
        <ele>39</ele>
        <time>2023-01-08T22:53:39Z</time>
      </trkpt>
      <trkpt lat="48.92963" lon="1.84749">
        <ele>42</ele>
        <time>2023-01-08T22:54:15Z</time>
      </trkpt>
      <trkpt lat="48.92971" lon="1.84758">
        <ele>44</ele>
        <time>2023-01-08T22:54:28Z</time>
      </trkpt>
      <trkpt lat="48.93077" lon="1.84826">
        <ele>54</ele>
        <time>2023-01-08T22:57:02Z</time>
      </trkpt>
      <trkpt lat="48.93098" lon="1.84854">
        <ele>56</ele>
        <time>2023-01-08T22:57:39Z</time>
      </trkpt>
      <trkpt lat="48.93113" lon="1.84899">
        <ele>59</ele>
        <time>2023-01-08T22:58:23Z</time>
      </trkpt>
      <trkpt lat="48.93131" lon="1.84933">
        <ele>61</ele>
        <time>2023-01-08T22:59:02Z</time>
      </trkpt>
      <trkpt lat="48.93148" lon="1.85031">
        <ele>64</ele>
        <time>2023-01-08T23:00:31Z</time>
      </trkpt>
      <trkpt lat="48.93147" lon="1.85057">
        <ele>66</ele>
        <time>2023-01-08T23:00:53Z</time>
      </trkpt>
      <trkpt lat="48.93153" lon="1.85075">
        <ele>66</ele>
        <time>2023-01-08T23:01:11Z</time>
      </trkpt>
      <trkpt lat="48.93294" lon="1.85105">
        <ele>61</ele>
        <time>2023-01-08T23:04:21Z</time>
      </trkpt>
      <trkpt lat="48.93358" lon="1.85135">
        <ele>57</ele>
        <time>2023-01-08T23:05:51Z</time>
      </trkpt>
      <trkpt lat="48.93405" lon="1.85175">
        <ele>55</ele>
        <time>2023-01-08T23:07:02Z</time>
      </trkpt>
      <trkpt lat="48.93432" lon="1.85189">
        <ele>56</ele>
        <time>2023-01-08T23:07:40Z</time>
      </trkpt>
      <trkpt lat="48.93442" lon="1.85177">
        <ele>57</ele>
        <time>2023-01-08T23:07:57Z</time>
      </trkpt>
      <trkpt lat="48.93447" lon="1.8518">
        <ele>57</ele>
        <time>2023-01-08T23:08:05Z</time>
      </trkpt>
      <trkpt lat="48.93451" lon="1.85173">
        <ele>58</ele>
        <time>2023-01-08T23:08:13Z</time>
      </trkpt>
      <trkpt lat="48.93466" lon="1.85129">
        <ele>58</ele>
        <time>2023-01-08T23:08:56Z</time>
      </trkpt>
      <trkpt lat="48.93505" lon="1.84976">
        <ele>52</ele>
        <time>2023-01-08T23:11:20Z</time>
      </trkpt>
      <trkpt lat="48.93536" lon="1.84918">
        <ele>50</ele>
        <time>2023-01-08T23:12:26Z</time>
      </trkpt>
      <trkpt lat="48.93626" lon="1.84801">
        <ele>45</ele>
        <time>2023-01-08T23:15:04Z</time>
      </trkpt>
      <trkpt lat="48.93683" lon="1.8475">
        <ele>41</ele>
        <time>2023-01-08T23:16:32Z</time>
      </trkpt>
      <trkpt lat="48.93743" lon="1.84645">
        <ele>39</ele>
        <time>2023-01-08T23:18:34Z</time>
      </trkpt>
      <trkpt lat="48.93748" lon="1.84616">
        <ele>38</ele>
        <time>2023-01-08T23:19:00Z</time>
      </trkpt>
      <trkpt lat="48.93731" lon="1.8456">
        <ele>37</ele>
        <time>2023-01-08T23:19:54Z</time>
      </trkpt>
      <trkpt lat="48.93714" lon="1.84479">
        <ele>36</ele>
        <time>2023-01-08T23:21:09Z</time>
      </trkpt>
      <trkpt lat="48.93718" lon="1.84466">
        <ele>36</ele>
        <time>2023-01-08T23:21:21Z</time>
      </trkpt>
      <trkpt lat="48.93734" lon="1.8445">
        <ele>36</ele>
        <time>2023-01-08T23:21:47Z</time>
      </trkpt>
      <trkpt lat="48.93786" lon="1.84404">
        <ele>40</ele>
        <time>2023-01-08T23:23:07Z</time>
      </trkpt>
      <trkpt lat="48.93812" lon="1.84392">
        <ele>43</ele>
        <time>2023-01-08T23:23:43Z</time>
      </trkpt>
      <trkpt lat="48.93844" lon="1.84414">
        <ele>46</ele>
        <time>2023-01-08T23:24:30Z</time>
      </trkpt>
      <trkpt lat="48.93896" lon="1.84411">
        <ele>52</ele>
        <time>2023-01-08T23:25:40Z</time>
      </trkpt>
      <trkpt lat="48.93917" lon="1.84428">
        <ele>55</ele>
        <time>2023-01-08T23:26:11Z</time>
      </trkpt>
      <trkpt lat="48.93949" lon="1.84446">
        <ele>62</ele>
        <time>2023-01-08T23:26:57Z</time>
      </trkpt>
      <trkpt lat="48.94001" lon="1.84461">
        <ele>74</ele>
        <time>2023-01-08T23:28:07Z</time>
      </trkpt>
      <trkpt lat="48.94008" lon="1.84468">
        <ele>76</ele>
        <time>2023-01-08T23:28:19Z</time>
      </trkpt>
      <trkpt lat="48.94017" lon="1.84491">
        <ele>79</ele>
        <time>2023-01-08T23:28:42Z</time>
      </trkpt>
      <trkpt lat="48.94024" lon="1.8449">
        <ele>80</ele>
        <time>2023-01-08T23:28:52Z</time>
      </trkpt>
      <trkpt lat="48.94037" lon="1.84469">
        <ele>81</ele>
        <time>2023-01-08T23:29:17Z</time>
      </trkpt>
      <trkpt lat="48.94041" lon="1.84423">
        <ele>80</ele>
        <time>2023-01-08T23:29:57Z</time>
      </trkpt>
      <trkpt lat="48.94062" lon="1.84347">
        <ele>78</ele>
        <time>2023-01-08T23:31:10Z</time>
      </trkpt>
      <trkpt lat="48.9409" lon="1.84314">
        <ele>79</ele>
        <time>2023-01-08T23:31:57Z</time>
      </trkpt>
      <trkpt lat="48.94131" lon="1.84276">
        <ele>77</ele>
        <time>2023-01-08T23:33:01Z</time>
      </trkpt>
      <trkpt lat="48.94155" lon="1.84259">
        <ele>78</ele>
        <time>2023-01-08T23:33:36Z</time>
      </trkpt>
      <trkpt lat="48.94172" lon="1.84237">
        <ele>76</ele>
        <time>2023-01-08T23:34:06Z</time>
      </trkpt>
      <trkpt lat="48.94206" lon="1.84229">
        <ele>77</ele>
        <time>2023-01-08T23:34:52Z</time>
      </trkpt>
      <trkpt lat="48.94216" lon="1.84235">
        <ele>79</ele>
        <time>2023-01-08T23:35:06Z</time>
      </trkpt>
      <trkpt lat="48.94229" lon="1.84251">
        <ele>82</ele>
        <time>2023-01-08T23:35:29Z</time>
      </trkpt>
      <trkpt lat="48.94246" lon="1.84259">
        <ele>84</ele>
        <time>2023-01-08T23:35:52Z</time>
      </trkpt>
      <trkpt lat="48.94271" lon="1.84244">
        <ele>85</ele>
        <time>2023-01-08T23:36:28Z</time>
      </trkpt>
      <trkpt lat="48.94347" lon="1.84181">
        <ele>84</ele>
        <time>2023-01-08T23:38:24Z</time>
      </trkpt>
      <trkpt lat="48.94399" lon="1.84159">
        <ele>87</ele>
        <time>2023-01-08T23:39:36Z</time>
      </trkpt>
      <trkpt lat="48.9443" lon="1.84108">
        <ele>83</ele>
        <time>2023-01-08T23:40:37Z</time>
      </trkpt>
      <trkpt lat="48.94471" lon="1.84067">
        <ele>82</ele>
        <time>2023-01-08T23:41:42Z</time>
      </trkpt>
      <trkpt lat="48.94496" lon="1.84024">
        <ele>78</ele>
        <time>2023-01-08T23:42:33Z</time>
      </trkpt>
      <trkpt lat="48.94514" lon="1.84008">
        <ele>78</ele>
        <time>2023-01-08T23:43:00Z</time>
      </trkpt>
      <trkpt lat="48.94531" lon="1.84">
        <ele>78</ele>
        <time>2023-01-08T23:43:24Z</time>
      </trkpt>
      <trkpt lat="48.94569" lon="1.83966">
        <ele>78</ele>
        <time>2023-01-08T23:44:23Z</time>
      </trkpt>
      <trkpt lat="48.94588" lon="1.83956">
        <ele>78</ele>
        <time>2023-01-08T23:44:50Z</time>
      </trkpt>
      <trkpt lat="48.94606" lon="1.83934">
        <ele>77</ele>
        <time>2023-01-08T23:45:21Z</time>
      </trkpt>
      <trkpt lat="48.94643" lon="1.83913">
        <ele>77</ele>
        <time>2023-01-08T23:46:13Z</time>
      </trkpt>
      <trkpt lat="48.94701" lon="1.83868">
        <ele>73</ele>
        <time>2023-01-08T23:47:40Z</time>
      </trkpt>
      <trkpt lat="48.94749" lon="1.83852">
        <ele>74</ele>
        <time>2023-01-08T23:48:46Z</time>
      </trkpt>
      <trkpt lat="48.94775" lon="1.83834">
        <ele>72</ele>
        <time>2023-01-08T23:49:24Z</time>
      </trkpt>
      <trkpt lat="48.94789" lon="1.83832">
        <ele>73</ele>
        <time>2023-01-08T23:49:43Z</time>
      </trkpt>
      <trkpt lat="48.9483" lon="1.83808">
        <ele>71</ele>
        <time>2023-01-08T23:50:41Z</time>
      </trkpt>
      <trkpt lat="48.94851" lon="1.83807">
        <ele>72</ele>
        <time>2023-01-08T23:51:09Z</time>
      </trkpt>
      <trkpt lat="48.94881" lon="1.8379">
        <ele>72</ele>
        <time>2023-01-08T23:51:52Z</time>
      </trkpt>
      <trkpt lat="48.94894" lon="1.83788">
        <ele>72</ele>
        <time>2023-01-08T23:52:09Z</time>
      </trkpt>
      <trkpt lat="48.94906" lon="1.83781">
        <ele>71</ele>
        <time>2023-01-08T23:52:26Z</time>
      </trkpt>
      <trkpt lat="48.94927" lon="1.83779">
        <ele>71</ele>
        <time>2023-01-08T23:52:55Z</time>
      </trkpt>
      <trkpt lat="48.94956" lon="1.83786">
        <ele>72</ele>
        <time>2023-01-08T23:53:34Z</time>
      </trkpt>
      <trkpt lat="48.94983" lon="1.83801">
        <ele>75</ele>
        <time>2023-01-08T23:54:12Z</time>
      </trkpt>
      <trkpt lat="48.95016" lon="1.83806">
        <ele>75</ele>
        <time>2023-01-08T23:54:56Z</time>
      </trkpt>
      <trkpt lat="48.95078" lon="1.83826">
        <ele>77</ele>
        <time>2023-01-08T23:56:21Z</time>
      </trkpt>
      <trkpt lat="48.95106" lon="1.8386">
        <ele>78</ele>
        <time>2023-01-08T23:57:09Z</time>
      </trkpt>
      <trkpt lat="48.95124" lon="1.83871">
        <ele>78</ele>
        <time>2023-01-08T23:57:35Z</time>
      </trkpt>
      <trkpt lat="48.95136" lon="1.83895">
        <ele>80</ele>
        <time>2023-01-08T23:58:01Z</time>
      </trkpt>
      <trkpt lat="48.95137" lon="1.8393">
        <ele>83</ele>
        <time>2023-01-08T23:58:32Z</time>
      </trkpt>
      <trkpt lat="48.95149" lon="1.83965">
        <ele>84</ele>
        <time>2023-01-08T23:59:06Z</time>
      </trkpt>
      <trkpt lat="48.9517" lon="1.83994">
        <ele>84</ele>
        <time>2023-01-08T23:59:44Z</time>
      </trkpt>
      <trkpt lat="48.95193" lon="1.84012">
        <ele>83</ele>
        <time>2023-01-09T00:00:19Z</time>
      </trkpt>
      <trkpt lat="48.95204" lon="1.84036">
        <ele>84</ele>
        <time>2023-01-09T00:00:44Z</time>
      </trkpt>
      <trkpt lat="48.95211" lon="1.84042">
        <ele>84</ele>
        <time>2023-01-09T00:00:55Z</time>
      </trkpt>
      <trkpt lat="48.95227" lon="1.84046">
        <ele>83</ele>
        <time>2023-01-09T00:01:17Z</time>
      </trkpt>
      <trkpt lat="48.95234" lon="1.84055">
        <ele>83</ele>
        <time>2023-01-09T00:01:29Z</time>
      </trkpt>
      <trkpt lat="48.95264" lon="1.84074">
        <ele>83</ele>
        <time>2023-01-09T00:02:12Z</time>
      </trkpt>
      <trkpt lat="48.9529" lon="1.84085">
        <ele>81</ele>
        <time>2023-01-09T00:02:48Z</time>
      </trkpt>
      <trkpt lat="48.95311" lon="1.84076">
        <ele>78</ele>
        <time>2023-01-09T00:03:17Z</time>
      </trkpt>
      <trkpt lat="48.95348" lon="1.84075">
        <ele>74</ele>
        <time>2023-01-09T00:04:07Z</time>
      </trkpt>
      <trkpt lat="48.95354" lon="1.84079">
        <ele>74</ele>
        <time>2023-01-09T00:04:16Z</time>
      </trkpt>
      <trkpt lat="48.95372" lon="1.84106">
        <ele>75</ele>
        <time>2023-01-09T00:04:49Z</time>
      </trkpt>
      <trkpt lat="48.95406" lon="1.84127">
        <ele>73</ele>
        <time>2023-01-09T00:05:38Z</time>
      </trkpt>
      <trkpt lat="48.95422" lon="1.8417">
        <ele>76</ele>
        <time>2023-01-09T00:06:22Z</time>
      </trkpt>
      <trkpt lat="48.95444" lon="1.84198">
        <ele>75</ele>
        <time>2023-01-09T00:07:00Z</time>
      </trkpt>
      <trkpt lat="48.95457" lon="1.84206">
        <ele>74</ele>
        <time>2023-01-09T00:07:18Z</time>
      </trkpt>
      <trkpt lat="48.95478" lon="1.84208">
        <ele>70</ele>
        <time>2023-01-09T00:07:47Z</time>
      </trkpt>
      <trkpt lat="48.95497" lon="1.84248">
        <ele>70</ele>
        <time>2023-01-09T00:08:30Z</time>
      </trkpt>
      <trkpt lat="48.95513" lon="1.8426">
        <ele>69</ele>
        <time>2023-01-09T00:08:54Z</time>
      </trkpt>
      <trkpt lat="48.9554" lon="1.84306">
        <ele>68</ele>
        <time>2023-01-09T00:09:48Z</time>
      </trkpt>
      <trkpt lat="48.95548" lon="1.84311">
        <ele>67</ele>
        <time>2023-01-09T00:09:59Z</time>
      </trkpt>
      <trkpt lat="48.95565" lon="1.84279">
        <ele>64</ele>
        <time>2023-01-09T00:10:35Z</time>
      </trkpt>
      <trkpt lat="48.95594" lon="1.84243">
        <ele>58</ele>
        <time>2023-01-09T00:11:25Z</time>
      </trkpt>
      <trkpt lat="48.95632" lon="1.8418">
        <ele>50</ele>
        <time>2023-01-09T00:12:40Z</time>
      </trkpt>
      <trkpt lat="48.95659" lon="1.8415">
        <ele>46</ele>
        <time>2023-01-09T00:13:25Z</time>
      </trkpt>
      <trkpt lat="48.95701" lon="1.84093">
        <ele>44</ele>
        <time>2023-01-09T00:14:40Z</time>
      </trkpt>
      <trkpt lat="48.95667" lon="1.83994">
        <ele>42</ele>
        <time>2023-01-09T00:16:18Z</time>
      </trkpt>
      <trkpt lat="48.95653" lon="1.83965">
        <ele>42</ele>
        <time>2023-01-09T00:16:49Z</time>
      </trkpt>
      <trkpt lat="48.95618" lon="1.83912">
        <ele>41</ele>
        <time>2023-01-09T00:17:55Z</time>
      </trkpt>
      <trkpt lat="48.95579" lon="1.83874">
        <ele>41</ele>
        <time>2023-01-09T00:18:57Z</time>
      </trkpt>
      <trkpt lat="48.95492" lon="1.83777">
        <ele>40</ele>
        <time>2023-01-09T00:21:21Z</time>
      </trkpt>
      <trkpt lat="48.95527" lon="1.8364">
        <ele>35</ele>
        <time>2023-01-09T00:23:30Z</time>
      </trkpt>
      <trkpt lat="48.95538" lon="1.83579">
        <ele>33</ele>
        <time>2023-01-09T00:24:25Z</time>
      </trkpt>
      <trkpt lat="48.95535" lon="1.83395">
        <ele>28</ele>
        <time>2023-01-09T00:27:06Z</time>
      </trkpt>
      <trkpt lat="48.95597" lon="1.83359">
        <ele>26</ele>
        <time>2023-01-09T00:28:35Z</time>
      </trkpt>
      <trkpt lat="48.95625" lon="1.83348">
        <ele>26</ele>
        <time>2023-01-09T00:29:13Z</time>
      </trkpt>
      <trkpt lat="48.95695" lon="1.83306">
        <ele>25</ele>
        <time>2023-01-09T00:30:54Z</time>
      </trkpt>
      <trkpt lat="48.95744" lon="1.83287">
        <ele>26</ele>
        <time>2023-01-09T00:32:01Z</time>
      </trkpt>
      <trkpt lat="48.9577" lon="1.83272">
        <ele>26</ele>
        <time>2023-01-09T00:32:38Z</time>
      </trkpt>
      <trkpt lat="48.95808" lon="1.83259">
        <ele>27</ele>
        <time>2023-01-09T00:33:30Z</time>
      </trkpt>
      <trkpt lat="48.95814" lon="1.83268">
        <ele>27</ele>
        <time>2023-01-09T00:33:42Z</time>
      </trkpt>
      <trkpt lat="48.95824" lon="1.83303">
        <ele>28</ele>
        <time>2023-01-09T00:34:15Z</time>
      </trkpt>
      <trkpt lat="48.95838" lon="1.83413">
        <ele>28</ele>
        <time>2023-01-09T00:35:53Z</time>
      </trkpt>
      <trkpt lat="48.95842" lon="1.83431">
        <ele>28</ele>
        <time>2023-01-09T00:36:10Z</time>
      </trkpt>
      <trkpt lat="48.95848" lon="1.83436">
        <ele>28</ele>
        <time>2023-01-09T00:36:19Z</time>
      </trkpt>
      <trkpt lat="48.9588" lon="1.83428">
        <ele>28</ele>
        <time>2023-01-09T00:37:02Z</time>
      </trkpt>
      <trkpt lat="48.95939" lon="1.83398">
        <ele>27</ele>
        <time>2023-01-09T00:38:25Z</time>
      </trkpt>
      <trkpt lat="48.95978" lon="1.83373">
        <ele>25</ele>
        <time>2023-01-09T00:39:22Z</time>
      </trkpt>
      <trkpt lat="48.96" lon="1.83353">
        <ele>24</ele>
        <time>2023-01-09T00:39:56Z</time>
      </trkpt>
      <trkpt lat="48.96006" lon="1.83355">
        <ele>24</ele>
        <time>2023-01-09T00:40:04Z</time>
      </trkpt>
      <trkpt lat="48.96011" lon="1.83363">
        <ele>24</ele>
        <time>2023-01-09T00:40:14Z</time>
      </trkpt>
      <trkpt lat="48.96018" lon="1.83397">
        <ele>25</ele>
        <time>2023-01-09T00:40:45Z</time>
      </trkpt>
      <trkpt lat="48.96023" lon="1.83402">
        <ele>25</ele>
        <time>2023-01-09T00:40:53Z</time>
      </trkpt>
      <trkpt lat="48.96112" lon="1.83363">
        <ele>24</ele>
        <time>2023-01-09T00:42:57Z</time>
      </trkpt>
      <trkpt lat="48.96148" lon="1.83337">
        <ele>25</ele>
        <time>2023-01-09T00:43:50Z</time>
      </trkpt>
      <trkpt lat="48.96188" lon="1.83325">
        <ele>25</ele>
        <time>2023-01-09T00:44:44Z</time>
      </trkpt>
      <trkpt lat="48.96212" lon="1.8331">
        <ele>24</ele>
        <time>2023-01-09T00:45:19Z</time>
      </trkpt>
      <trkpt lat="48.96282" lon="1.83282">
        <ele>25</ele>
        <time>2023-01-09T00:46:55Z</time>
      </trkpt>
      <trkpt lat="48.96382" lon="1.83249">
        <ele>26</ele>
        <time>2023-01-09T00:49:12Z</time>
      </trkpt>
      <trkpt lat="48.96399" lon="1.8325">
        <ele>27</ele>
        <time>2023-01-09T00:49:35Z</time>
      </trkpt>
      <trkpt lat="48.96421" lon="1.8326">
        <ele>27</ele>
        <time>2023-01-09T00:50:05Z</time>
      </trkpt>
      <trkpt lat="48.96457" lon="1.83303">
        <ele>26</ele>
        <time>2023-01-09T00:51:06Z</time>
      </trkpt>
      <trkpt lat="48.96499" lon="1.83367">
        <ele>26</ele>
        <time>2023-01-09T00:52:26Z</time>
      </trkpt>
      <trkpt lat="48.96516" lon="1.83381">
        <ele>26</ele>
        <time>2023-01-09T00:52:51Z</time>
      </trkpt>
      <trkpt lat="48.96543" lon="1.83392">
        <ele>26</ele>
        <time>2023-01-09T00:53:29Z</time>
      </trkpt>
      <trkpt lat="48.96572" lon="1.83392">
        <ele>26</ele>
        <time>2023-01-09T00:54:07Z</time>
      </trkpt>
      <trkpt lat="48.96637" lon="1.83364">
        <ele>25</ele>
        <time>2023-01-09T00:55:38Z</time>
      </trkpt>
      <trkpt lat="48.96683" lon="1.83337">
        <ele>25</ele>
        <time>2023-01-09T00:56:43Z</time>
      </trkpt>
      <trkpt lat="48.96742" lon="1.83313">
        <ele>25</ele>
        <time>2023-01-09T00:58:05Z</time>
      </trkpt>
      <trkpt lat="48.96756" lon="1.83302">
        <ele>25</ele>
        <time>2023-01-09T00:58:26Z</time>
      </trkpt>
      <trkpt lat="48.96763" lon="1.83286">
        <ele>25</ele>
        <time>2023-01-09T00:58:43Z</time>
      </trkpt>
      <trkpt lat="48.96749" lon="1.83236">
        <ele>24</ele>
        <time>2023-01-09T00:59:30Z</time>
      </trkpt>
      <trkpt lat="48.96753" lon="1.83194">
        <ele>23</ele>
        <time>2023-01-09T01:00:08Z</time>
      </trkpt>
      <trkpt lat="48.9677" lon="1.83105">
        <ele>24</ele>
        <time>2023-01-09T01:01:29Z</time>
      </trkpt>
      <trkpt lat="48.96801" lon="1.82999">
        <ele>24</ele>
        <time>2023-01-09T01:03:10Z</time>
      </trkpt>
      <trkpt lat="48.96805" lon="1.82951">
        <ele>23</ele>
        <time>2023-01-09T01:03:53Z</time>
      </trkpt>
      <trkpt lat="48.96817" lon="1.82917">
        <ele>23</ele>
        <time>2023-01-09T01:04:27Z</time>
      </trkpt>
      <trkpt lat="48.96816" lon="1.82878">
        <ele>22</ele>
        <time>2023-01-09T01:05:01Z</time>
      </trkpt>
      <trkpt lat="48.96805" lon="1.82819">
        <ele>21</ele>
        <time>2023-01-09T01:05:55Z</time>
      </trkpt>
      <trkpt lat="48.96791" lon="1.82686">
        <ele>21</ele>
        <time>2023-01-09T01:07:53Z</time>
      </trkpt>
      <trkpt lat="48.96784" lon="1.82645">
        <ele>20</ele>
        <time>2023-01-09T01:08:30Z</time>
      </trkpt>
      <trkpt lat="48.96774" lon="1.82617">
        <ele>19</ele>
        <time>2023-01-09T01:08:58Z</time>
      </trkpt>
      <trkpt lat="48.96763" lon="1.82543">
        <ele>17</ele>
        <time>2023-01-09T01:10:04Z</time>
      </trkpt>
      <trkpt lat="48.96763" lon="1.82502">
        <ele>17</ele>
        <time>2023-01-09T01:10:40Z</time>
      </trkpt>
      <trkpt lat="48.96778" lon="1.82354">
        <ele>17</ele>
        <time>2023-01-09T01:12:51Z</time>
      </trkpt>
      <trkpt lat="48.96775" lon="1.8233">
        <ele>18</ele>
        <time>2023-01-09T01:13:13Z</time>
      </trkpt>
      <trkpt lat="48.96781" lon="1.82315">
        <ele>18</ele>
        <time>2023-01-09T01:13:28Z</time>
      </trkpt>
      <trkpt lat="48.968" lon="1.82316">
        <ele>18</ele>
        <time>2023-01-09T01:13:53Z</time>
      </trkpt>
      <trkpt lat="48.96779" lon="1.82313">
        <ele>18</ele>
        <time>2023-01-09T01:14:21Z</time>
      </trkpt>
      <trkpt lat="48.96812" lon="1.82322">
        <ele>19</ele>
        <time>2023-01-09T01:15:06Z</time>
      </trkpt>
      <trkpt lat="48.96827" lon="1.82322">
        <ele>19</ele>
        <time>2023-01-09T01:15:26Z</time>
      </trkpt>
      <trkpt lat="48.96863" lon="1.82336">
        <ele>19</ele>
        <time>2023-01-09T01:16:16Z</time>
      </trkpt>
      <trkpt lat="48.96887" lon="1.82332">
        <ele>19</ele>
        <time>2023-01-09T01:16:48Z</time>
      </trkpt>
      <trkpt lat="48.96908" lon="1.82335">
        <ele>19</ele>
        <time>2023-01-09T01:17:16Z</time>
      </trkpt>
      <trkpt lat="48.96966" lon="1.82332">
        <ele>19</ele>
        <time>2023-01-09T01:18:34Z</time>
      </trkpt>
      <trkpt lat="48.9713" lon="1.82279">
        <ele>18</ele>
        <time>2023-01-09T01:22:17Z</time>
      </trkpt>
      <trkpt lat="48.97213" lon="1.82279">
        <ele>18</ele>
        <time>2023-01-09T01:24:08Z</time>
      </trkpt>
      <trkpt lat="48.97263" lon="1.82274">
        <ele>18</ele>
        <time>2023-01-09T01:25:15Z</time>
      </trkpt>
      <trkpt lat="48.97307" lon="1.82277">
        <ele>18</ele>
        <time>2023-01-09T01:26:14Z</time>
      </trkpt>
      <trkpt lat="48.97337" lon="1.82273">
        <ele>18</ele>
        <time>2023-01-09T01:26:54Z</time>
      </trkpt>
      <trkpt lat="48.97358" lon="1.82261">
        <ele>18</ele>
        <time>2023-01-09T01:27:24Z</time>
      </trkpt>
      <trkpt lat="48.97376" lon="1.82256">
        <ele>18</ele>
        <time>2023-01-09T01:27:48Z</time>
      </trkpt>
      <trkpt lat="48.9739" lon="1.82298">
        <ele>18</ele>
        <time>2023-01-09T01:28:30Z</time>
      </trkpt>
      <trkpt lat="48.974" lon="1.82301">
        <ele>18</ele>
        <time>2023-01-09T01:28:43Z</time>
      </trkpt>
      <trkpt lat="48.97419" lon="1.82297">
        <ele>19</ele>
        <time>2023-01-09T01:29:09Z</time>
      </trkpt>
      <trkpt lat="48.97431" lon="1.82313">
        <ele>19</ele>
        <time>2023-01-09T01:29:30Z</time>
      </trkpt>
      <trkpt lat="48.97436" lon="1.82371">
        <ele>18</ele>
        <time>2023-01-09T01:30:21Z</time>
      </trkpt>
      <trkpt lat="48.97444" lon="1.82398">
        <ele>18</ele>
        <time>2023-01-09T01:30:47Z</time>
      </trkpt>
      <trkpt lat="48.97477" lon="1.82458">
        <ele>18</ele>
        <time>2023-01-09T01:31:56Z</time>
      </trkpt>
      <trkpt lat="48.97483" lon="1.82483">
        <ele>18</ele>
        <time>2023-01-09T01:32:19Z</time>
      </trkpt>
      <trkpt lat="48.97517" lon="1.82569">
        <ele>18</ele>
        <time>2023-01-09T01:33:47Z</time>
      </trkpt>
      <trkpt lat="48.97519" lon="1.82594">
        <ele>18</ele>
        <time>2023-01-09T01:34:09Z</time>
      </trkpt>
      <trkpt lat="48.97511" lon="1.82612">
        <ele>18</ele>
        <time>2023-01-09T01:34:28Z</time>
      </trkpt>
      <trkpt lat="48.97509" lon="1.8263">
        <ele>19</ele>
        <time>2023-01-09T01:34:44Z</time>
      </trkpt>
      <trkpt lat="48.97495" lon="1.82661">
        <ele>19</ele>
        <time>2023-01-09T01:35:17Z</time>
      </trkpt>
      <trkpt lat="48.97494" lon="1.82696">
        <ele>18</ele>
        <time>2023-01-09T01:35:48Z</time>
      </trkpt>
      <trkpt lat="48.97503" lon="1.82716">
        <ele>18</ele>
        <time>2023-01-09T01:36:09Z</time>
      </trkpt>
      <trkpt lat="48.9751" lon="1.82763">
        <ele>18</ele>
        <time>2023-01-09T01:36:51Z</time>
      </trkpt>
      <trkpt lat="48.97541" lon="1.82883">
        <ele>16</ele>
        <time>2023-01-09T01:38:44Z</time>
      </trkpt>
      <trkpt lat="48.97554" lon="1.82913">
        <ele>15</ele>
        <time>2023-01-09T01:39:16Z</time>
      </trkpt>
      <trkpt lat="48.97571" lon="1.82986">
        <ele>15</ele>
        <time>2023-01-09T01:40:23Z</time>
      </trkpt>
      <trkpt lat="48.97582" lon="1.83008">
        <ele>15</ele>
        <time>2023-01-09T01:40:48Z</time>
      </trkpt>
      <trkpt lat="48.97597" lon="1.83069">
        <ele>16</ele>
        <time>2023-01-09T01:41:45Z</time>
      </trkpt>
      <trkpt lat="48.97613" lon="1.83113">
        <ele>17</ele>
        <time>2023-01-09T01:42:29Z</time>
      </trkpt>
      <trkpt lat="48.97621" lon="1.83164">
        <ele>18</ele>
        <time>2023-01-09T01:43:15Z</time>
      </trkpt>
      <trkpt lat="48.97682" lon="1.83382">
        <ele>20</ele>
        <time>2023-01-09T01:46:42Z</time>
      </trkpt>
      <trkpt lat="48.97705" lon="1.83447">
        <ele>20</ele>
        <time>2023-01-09T01:47:47Z</time>
      </trkpt>
      <trkpt lat="48.97724" lon="1.83519">
        <ele>21</ele>
        <time>2023-01-09T01:48:55Z</time>
      </trkpt>
      <trkpt lat="48.9775" lon="1.83583">
        <ele>24</ele>
        <time>2023-01-09T01:50:01Z</time>
      </trkpt>
      <trkpt lat="48.97783" lon="1.83689">
        <ele>23</ele>
        <time>2023-01-09T01:51:44Z</time>
      </trkpt>
      <trkpt lat="48.97792" lon="1.83692">
        <ele>23</ele>
        <time>2023-01-09T01:51:56Z</time>
      </trkpt>
      <trkpt lat="48.97801" lon="1.83687">
        <ele>22</ele>
        <time>2023-01-09T01:52:09Z</time>
      </trkpt>
      <trkpt lat="48.97845" lon="1.83647">
        <ele>20</ele>
        <time>2023-01-09T01:53:17Z</time>
      </trkpt>
      <trkpt lat="48.97857" lon="1.83643">
        <ele>20</ele>
        <time>2023-01-09T01:53:34Z</time>
      </trkpt>
      <trkpt lat="48.97881" lon="1.83624">
        <ele>19</ele>
        <time>2023-01-09T01:54:10Z</time>
      </trkpt>
      <trkpt lat="48.97911" lon="1.83593">
        <ele>20</ele>
        <time>2023-01-09T01:54:58Z</time>
      </trkpt>
      <trkpt lat="48.97932" lon="1.83582">
        <ele>20</ele>
        <time>2023-01-09T01:55:28Z</time>
      </trkpt>
      <trkpt lat="48.97986" lon="1.83533">
        <ele>19</ele>
        <time>2023-01-09T01:56:51Z</time>
      </trkpt>
      <trkpt lat="48.98026" lon="1.83512">
        <ele>19</ele>
        <time>2023-01-09T01:57:48Z</time>
      </trkpt>
      <trkpt lat="48.98112" lon="1.83438">
        <ele>19</ele>
        <time>2023-01-09T02:00:00Z</time>
      </trkpt>
      <trkpt lat="48.98159" lon="1.83412">
        <ele>20</ele>
        <time>2023-01-09T02:01:06Z</time>
      </trkpt>
      <trkpt lat="48.98169" lon="1.83429">
        <ele>20</ele>
        <time>2023-01-09T02:01:26Z</time>
      </trkpt>
      <trkpt lat="48.98188" lon="1.83521">
        <ele>19</ele>
        <time>2023-01-09T02:02:51Z</time>
      </trkpt>
      <trkpt lat="48.98229" lon="1.83596">
        <ele>18</ele>
        <time>2023-01-09T02:04:16Z</time>
      </trkpt>
      <trkpt lat="48.98253" lon="1.83656">
        <ele>19</ele>
        <time>2023-01-09T02:05:18Z</time>
      </trkpt>
      <trkpt lat="48.98266" lon="1.83675">
        <ele>19</ele>
        <time>2023-01-09T02:05:42Z</time>
      </trkpt>
      <trkpt lat="48.98313" lon="1.83774">
        <ele>18</ele>
        <time>2023-01-09T02:07:29Z</time>
      </trkpt>
      <trkpt lat="48.98336" lon="1.83804">
        <ele>19</ele>
        <time>2023-01-09T02:08:09Z</time>
      </trkpt>
      <trkpt lat="48.98349" lon="1.83843">
        <ele>18</ele>
        <time>2023-01-09T02:08:48Z</time>
      </trkpt>
      <trkpt lat="48.98361" lon="1.83854">
        <ele>18</ele>
        <time>2023-01-09T02:09:06Z</time>
      </trkpt>
      <trkpt lat="48.9837" lon="1.83871">
        <ele>18</ele>
        <time>2023-01-09T02:09:26Z</time>
      </trkpt>
      <trkpt lat="48.98356" lon="1.83951">
        <ele>18</ele>
        <time>2023-01-09T02:10:38Z</time>
      </trkpt>
      <trkpt lat="48.98349" lon="1.84064">
        <ele>19</ele>
        <time>2023-01-09T02:12:17Z</time>
      </trkpt>
      <trkpt lat="48.98345" lon="1.84068">
        <ele>19</ele>
        <time>2023-01-09T02:12:24Z</time>
      </trkpt>
      <trkpt lat="48.98335" lon="1.8406">
        <ele>20</ele>
        <time>2023-01-09T02:12:39Z</time>
      </trkpt>
      <trkpt lat="48.98321" lon="1.84073">
        <ele>20</ele>
        <time>2023-01-09T02:13:01Z</time>
      </trkpt>
      <trkpt lat="48.98312" lon="1.84075">
        <ele>20</ele>
        <time>2023-01-09T02:13:13Z</time>
      </trkpt>
      <trkpt lat="48.98308" lon="1.84068">
        <ele>19</ele>
        <time>2023-01-09T02:13:21Z</time>
      </trkpt>
      <trkpt lat="48.9831" lon="1.84063">
        <ele>19</ele>
        <time>2023-01-09T02:13:26Z</time>
      </trkpt>
      <trkpt lat="48.98312" lon="1.84068">
        <ele>20</ele>
        <time>2023-01-09T02:13:31Z</time>
      </trkpt>
      <trkpt lat="48.98312" lon="1.84062">
        <ele>19</ele>
        <time>2023-01-09T02:13:37Z</time>
      </trkpt>
      <trkpt lat="48.98308" lon="1.84063">
        <ele>19</ele>
        <time>2023-01-09T02:13:42Z</time>
      </trkpt>
      <trkpt lat="48.9831" lon="1.84059">
        <ele>19</ele>
        <time>2023-01-09T02:13:46Z</time>
      </trkpt>
      <trkpt lat="48.98312" lon="1.84062">
        <ele>19</ele>
        <time>2023-01-09T02:13:50Z</time>
      </trkpt>
      <trkpt lat="48.98306" lon="1.84069">
        <ele>19</ele>
        <time>2023-01-09T02:14:00Z</time>
      </trkpt>
      <trkpt lat="48.98305" lon="1.84084">
        <ele>20</ele>
        <time>2023-01-09T02:14:13Z</time>
      </trkpt>
      <trkpt lat="48.98307" lon="1.84093">
        <ele>20</ele>
        <time>2023-01-09T02:14:22Z</time>
      </trkpt>
      <trkpt lat="48.98325" lon="1.84118">
        <ele>20</ele>
        <time>2023-01-09T02:14:54Z</time>
      </trkpt>
      <trkpt lat="48.98328" lon="1.84132">
        <ele>21</ele>
        <time>2023-01-09T02:15:07Z</time>
      </trkpt>
      <trkpt lat="48.98342" lon="1.84158">
        <ele>21</ele>
        <time>2023-01-09T02:15:37Z</time>
      </trkpt>
      <trkpt lat="48.98343" lon="1.84171">
        <ele>21</ele>
        <time>2023-01-09T02:15:48Z</time>
      </trkpt>
      <trkpt lat="48.98361" lon="1.84188">
        <ele>20</ele>
        <time>2023-01-09T02:16:16Z</time>
      </trkpt>
      <trkpt lat="48.98363" lon="1.84199">
        <ele>20</ele>
        <time>2023-01-09T02:16:26Z</time>
      </trkpt>
      <trkpt lat="48.9838" lon="1.84223">
        <ele>20</ele>
        <time>2023-01-09T02:16:57Z</time>
      </trkpt>
      <trkpt lat="48.98387" lon="1.8423">
        <ele>20</ele>
        <time>2023-01-09T02:17:08Z</time>
      </trkpt>
      <trkpt lat="48.98404" lon="1.84231">
        <ele>20</ele>
        <time>2023-01-09T02:17:31Z</time>
      </trkpt>
      <trkpt lat="48.98423" lon="1.84223">
        <ele>19</ele>
        <time>2023-01-09T02:17:57Z</time>
      </trkpt>
      <trkpt lat="48.98445" lon="1.8425">
        <ele>19</ele>
        <time>2023-01-09T02:18:35Z</time>
      </trkpt>
      <trkpt lat="48.98452" lon="1.84279">
        <ele>19</ele>
        <time>2023-01-09T02:19:02Z</time>
      </trkpt>
      <trkpt lat="48.98466" lon="1.84307">
        <ele>18</ele>
        <time>2023-01-09T02:19:33Z</time>
      </trkpt>
      <trkpt lat="48.98469" lon="1.84329">
        <ele>18</ele>
        <time>2023-01-09T02:19:53Z</time>
      </trkpt>
      <trkpt lat="48.98472" lon="1.8433">
        <ele>18</ele>
        <time>2023-01-09T02:19:57Z</time>
      </trkpt>
      <trkpt lat="48.98474" lon="1.84362">
        <ele>19</ele>
        <time>2023-01-09T02:20:25Z</time>
      </trkpt>
      <trkpt lat="48.98491" lon="1.84393">
        <ele>18</ele>
        <time>2023-01-09T02:21:00Z</time>
      </trkpt>
      <trkpt lat="48.98496" lon="1.84422">
        <ele>18</ele>
        <time>2023-01-09T02:21:27Z</time>
      </trkpt>
      <trkpt lat="48.9851" lon="1.84448">
        <ele>19</ele>
        <time>2023-01-09T02:21:56Z</time>
      </trkpt>
      <trkpt lat="48.98518" lon="1.84485">
        <ele>19</ele>
        <time>2023-01-09T02:22:30Z</time>
      </trkpt>
      <trkpt lat="48.98527" lon="1.84501">
        <ele>19</ele>
        <time>2023-01-09T02:22:49Z</time>
      </trkpt>
      <trkpt lat="48.98532" lon="1.84546">
        <ele>21</ele>
        <time>2023-01-09T02:23:29Z</time>
      </trkpt>
      <trkpt lat="48.98544" lon="1.8457">
        <ele>21</ele>
        <time>2023-01-09T02:23:55Z</time>
      </trkpt>
      <trkpt lat="48.98554" lon="1.84615">
        <ele>22</ele>
        <time>2023-01-09T02:24:37Z</time>
      </trkpt>
      <trkpt lat="48.98572" lon="1.84661">
        <ele>22</ele>
        <time>2023-01-09T02:25:23Z</time>
      </trkpt>
      <trkpt lat="48.98573" lon="1.84703">
        <ele>23</ele>
        <time>2023-01-09T02:26:00Z</time>
      </trkpt>
      <trkpt lat="48.98588" lon="1.84733">
        <ele>22</ele>
        <time>2023-01-09T02:26:33Z</time>
      </trkpt>
      <trkpt lat="48.98605" lon="1.84795">
        <ele>21</ele>
        <time>2023-01-09T02:27:32Z</time>
      </trkpt>
      <trkpt lat="48.98627" lon="1.8484">
        <ele>19</ele>
        <time>2023-01-09T02:28:21Z</time>
      </trkpt>
      <trkpt lat="48.9864" lon="1.84877">
        <ele>19</ele>
        <time>2023-01-09T02:28:58Z</time>
      </trkpt>
      <trkpt lat="48.98646" lon="1.84912">
        <ele>19</ele>
        <time>2023-01-09T02:29:30Z</time>
      </trkpt>
      <trkpt lat="48.98635" lon="1.85039">
        <ele>19</ele>
        <time>2023-01-09T02:31:22Z</time>
      </trkpt>
      <trkpt lat="48.98634" lon="1.85105">
        <ele>18</ele>
        <time>2023-01-09T02:32:20Z</time>
      </trkpt>
      <trkpt lat="48.98644" lon="1.85218">
        <ele>18</ele>
        <time>2023-01-09T02:34:00Z</time>
      </trkpt>
      <trkpt lat="48.98648" lon="1.85361">
        <ele>18</ele>
        <time>2023-01-09T02:36:05Z</time>
      </trkpt>
      <trkpt lat="48.9866" lon="1.85439">
        <ele>18</ele>
        <time>2023-01-09T02:37:15Z</time>
      </trkpt>
      <trkpt lat="48.98678" lon="1.85501">
        <ele>18</ele>
        <time>2023-01-09T02:38:14Z</time>
      </trkpt>
      <trkpt lat="48.98679" lon="1.85554">
        <ele>19</ele>
        <time>2023-01-09T02:39:01Z</time>
      </trkpt>
      <trkpt lat="48.98696" lon="1.85656">
        <ele>20</ele>
        <time>2023-01-09T02:40:33Z</time>
      </trkpt>
      <trkpt lat="48.98704" lon="1.85771">
        <ele>20</ele>
        <time>2023-01-09T02:42:14Z</time>
      </trkpt>
      <trkpt lat="48.98715" lon="1.85807">
        <ele>20</ele>
        <time>2023-01-09T02:42:49Z</time>
      </trkpt>
      <trkpt lat="48.98717" lon="1.85836">
        <ele>20</ele>
        <time>2023-01-09T02:43:15Z</time>
      </trkpt>
      <trkpt lat="48.98747" lon="1.85946">
        <ele>21</ele>
        <time>2023-01-09T02:44:59Z</time>
      </trkpt>
      <trkpt lat="48.98755" lon="1.86034">
        <ele>20</ele>
        <time>2023-01-09T02:46:17Z</time>
      </trkpt>
      <trkpt lat="48.98784" lon="1.8613">
        <ele>19</ele>
        <time>2023-01-09T02:47:49Z</time>
      </trkpt>
      <trkpt lat="48.98806" lon="1.86263">
        <ele>20</ele>
        <time>2023-01-09T02:49:49Z</time>
      </trkpt>
      <trkpt lat="48.98866" lon="1.86484">
        <ele>19</ele>
        <time>2023-01-09T02:53:19Z</time>
      </trkpt>
      <trkpt lat="48.9887" lon="1.86522">
        <ele>19</ele>
        <time>2023-01-09T02:53:53Z</time>
      </trkpt>
      <trkpt lat="48.98918" lon="1.86672">
        <ele>20</ele>
        <time>2023-01-09T02:56:19Z</time>
      </trkpt>
      <trkpt lat="48.98929" lon="1.86728">
        <ele>19</ele>
        <time>2023-01-09T02:57:10Z</time>
      </trkpt>
      <trkpt lat="48.98948" lon="1.86788">
        <ele>18</ele>
        <time>2023-01-09T02:58:08Z</time>
      </trkpt>
      <trkpt lat="48.98947" lon="1.8681">
        <ele>18</ele>
        <time>2023-01-09T02:58:28Z</time>
      </trkpt>
      <trkpt lat="48.98926" lon="1.86821">
        <ele>18</ele>
        <time>2023-01-09T02:58:57Z</time>
      </trkpt>
      <trkpt lat="48.98908" lon="1.86824">
        <ele>18</ele>
        <time>2023-01-09T02:59:21Z</time>
      </trkpt>
      <trkpt lat="48.98885" lon="1.86839">
        <ele>19</ele>
        <time>2023-01-09T02:59:55Z</time>
      </trkpt>
      <trkpt lat="48.98856" lon="1.86851">
        <ele>19</ele>
        <time>2023-01-09T03:00:35Z</time>
      </trkpt>
      <trkpt lat="48.98836" lon="1.86868">
        <ele>20</ele>
        <time>2023-01-09T03:01:05Z</time>
      </trkpt>
      <trkpt lat="48.98764" lon="1.86915">
        <ele>19</ele>
        <time>2023-01-09T03:02:50Z</time>
      </trkpt>
      <trkpt lat="48.98708" lon="1.86941">
        <ele>21</ele>
        <time>2023-01-09T03:04:08Z</time>
      </trkpt>
      <trkpt lat="48.98645" lon="1.86953">
        <ele>22</ele>
        <time>2023-01-09T03:05:33Z</time>
      </trkpt>
      <trkpt lat="48.98599" lon="1.86978">
        <ele>23</ele>
        <time>2023-01-09T03:06:38Z</time>
      </trkpt>
      <trkpt lat="48.98586" lon="1.86992">
        <ele>23</ele>
        <time>2023-01-09T03:06:59Z</time>
      </trkpt>
      <trkpt lat="48.98585" lon="1.87013">
        <ele>23</ele>
        <time>2023-01-09T03:07:18Z</time>
      </trkpt>
      <trkpt lat="48.98589" lon="1.87032">
        <ele>23</ele>
        <time>2023-01-09T03:07:35Z</time>
      </trkpt>
      <trkpt lat="48.98625" lon="1.87159">
        <ele>23</ele>
        <time>2023-01-09T03:09:36Z</time>
      </trkpt>
      <trkpt lat="48.98641" lon="1.87244">
        <ele>23</ele>
        <time>2023-01-09T03:10:54Z</time>
      </trkpt>
      <trkpt lat="48.98666" lon="1.87321">
        <ele>24</ele>
        <time>2023-01-09T03:12:09Z</time>
      </trkpt>
      <trkpt lat="48.98739" lon="1.87603">
        <ele>22</ele>
        <time>2023-01-09T03:16:34Z</time>
      </trkpt>
      <trkpt lat="48.98766" lon="1.87682">
        <ele>22</ele>
        <time>2023-01-09T03:17:52Z</time>
      </trkpt>
      <trkpt lat="48.98783" lon="1.87755">
        <ele>20</ele>
        <time>2023-01-09T03:19:00Z</time>
      </trkpt>
      <trkpt lat="48.98808" lon="1.87835">
        <ele>19</ele>
        <time>2023-01-09T03:20:18Z</time>
      </trkpt>
      <trkpt lat="48.98831" lon="1.87924">
        <ele>20</ele>
        <time>2023-01-09T03:21:42Z</time>
      </trkpt>
      <trkpt lat="48.9884" lon="1.87976">
        <ele>21</ele>
        <time>2023-01-09T03:22:29Z</time>
      </trkpt>
      <trkpt lat="48.98853" lon="1.8801">
        <ele>21</ele>
        <time>2023-01-09T03:23:03Z</time>
      </trkpt>
      <trkpt lat="48.98874" lon="1.88082">
        <ele>21</ele>
        <time>2023-01-09T03:24:12Z</time>
      </trkpt>
      <trkpt lat="48.98883" lon="1.88128">
        <ele>21</ele>
        <time>2023-01-09T03:24:54Z</time>
      </trkpt>
      <trkpt lat="48.98912" lon="1.88219">
        <ele>22</ele>
        <time>2023-01-09T03:26:23Z</time>
      </trkpt>
      <trkpt lat="48.98914" lon="1.8824">
        <ele>22</ele>
        <time>2023-01-09T03:26:41Z</time>
      </trkpt>
      <trkpt lat="48.98931" lon="1.88305">
        <ele>22</ele>
        <time>2023-01-09T03:27:43Z</time>
      </trkpt>
      <trkpt lat="48.98955" lon="1.8837">
        <ele>20</ele>
        <time>2023-01-09T03:28:48Z</time>
      </trkpt>
      <trkpt lat="48.98964" lon="1.88369">
        <ele>20</ele>
        <time>2023-01-09T03:29:00Z</time>
      </trkpt>
      <trkpt lat="48.98991" lon="1.88344">
        <ele>19</ele>
        <time>2023-01-09T03:29:42Z</time>
      </trkpt>
      <trkpt lat="48.99094" lon="1.88288">
        <ele>19</ele>
        <time>2023-01-09T03:32:08Z</time>
      </trkpt>
      <trkpt lat="48.99114" lon="1.8827">
        <ele>19</ele>
        <time>2023-01-09T03:32:39Z</time>
      </trkpt>
      <trkpt lat="48.99165" lon="1.88247">
        <ele>18</ele>
        <time>2023-01-09T03:33:50Z</time>
      </trkpt>
      <trkpt lat="48.99232" lon="1.88199">
        <ele>20</ele>
        <time>2023-01-09T03:35:29Z</time>
      </trkpt>
      <trkpt lat="48.99274" lon="1.8818">
        <ele>21</ele>
        <time>2023-01-09T03:36:27Z</time>
      </trkpt>
      <trkpt lat="48.99298" lon="1.88158">
        <ele>20</ele>
        <time>2023-01-09T03:37:05Z</time>
      </trkpt>
      <trkpt lat="48.99305" lon="1.88158">
        <ele>20</ele>
        <time>2023-01-09T03:37:14Z</time>
      </trkpt>
      <trkpt lat="48.99312" lon="1.88167">
        <ele>21</ele>
        <time>2023-01-09T03:37:26Z</time>
      </trkpt>
      <trkpt lat="48.99331" lon="1.88246">
        <ele>24</ele>
        <time>2023-01-09T03:38:40Z</time>
      </trkpt>
      <trkpt lat="48.99353" lon="1.88369">
        <ele>22</ele>
        <time>2023-01-09T03:40:31Z</time>
      </trkpt>
      <trkpt lat="48.99378" lon="1.88449">
        <ele>20</ele>
        <time>2023-01-09T03:41:49Z</time>
      </trkpt>
      <trkpt lat="48.99389" lon="1.88498">
        <ele>20</ele>
        <time>2023-01-09T03:42:34Z</time>
      </trkpt>
      <trkpt lat="48.99408" lon="1.88603">
        <ele>24</ele>
        <time>2023-01-09T03:44:10Z</time>
      </trkpt>
      <trkpt lat="48.99409" lon="1.88636">
        <ele>25</ele>
        <time>2023-01-09T03:44:39Z</time>
      </trkpt>
      <trkpt lat="48.99434" lon="1.88687">
        <ele>24</ele>
        <time>2023-01-09T03:45:34Z</time>
      </trkpt>
      <trkpt lat="48.99449" lon="1.88791">
        <ele>23</ele>
        <time>2023-01-09T03:47:08Z</time>
      </trkpt>
      <trkpt lat="48.9947" lon="1.88873">
        <ele>22</ele>
        <time>2023-01-09T03:48:25Z</time>
      </trkpt>
      <trkpt lat="48.99468" lon="1.88916">
        <ele>22</ele>
        <time>2023-01-09T03:49:03Z</time>
      </trkpt>
      <trkpt lat="48.99483" lon="1.8898">
        <ele>23</ele>
        <time>2023-01-09T03:50:02Z</time>
      </trkpt>
      <trkpt lat="48.99477" lon="1.88999">
        <ele>23</ele>
        <time>2023-01-09T03:50:20Z</time>
      </trkpt>
      <trkpt lat="48.99491" lon="1.89053">
        <ele>22</ele>
        <time>2023-01-09T03:51:11Z</time>
      </trkpt>
      <trkpt lat="48.99489" lon="1.89062">
        <ele>22</ele>
        <time>2023-01-09T03:51:20Z</time>
      </trkpt>
      <trkpt lat="48.99506" lon="1.89088">
        <ele>22</ele>
        <time>2023-01-09T03:51:52Z</time>
      </trkpt>
      <trkpt lat="48.99523" lon="1.89181">
        <ele>22</ele>
        <time>2023-01-09T03:53:16Z</time>
      </trkpt>
      <trkpt lat="48.99535" lon="1.89221">
        <ele>22</ele>
        <time>2023-01-09T03:53:55Z</time>
      </trkpt>
      <trkpt lat="48.99537" lon="1.89247">
        <ele>22</ele>
        <time>2023-01-09T03:54:18Z</time>
      </trkpt>
      <trkpt lat="48.9955" lon="1.89275">
        <ele>21</ele>
        <time>2023-01-09T03:54:48Z</time>
      </trkpt>
      <trkpt lat="48.9956" lon="1.89312">
        <ele>20</ele>
        <time>2023-01-09T03:55:23Z</time>
      </trkpt>
      <trkpt lat="48.99584" lon="1.89448">
        <ele>19</ele>
        <time>2023-01-09T03:57:26Z</time>
      </trkpt>
      <trkpt lat="48.99613" lon="1.89564">
        <ele>20</ele>
        <time>2023-01-09T03:59:15Z</time>
      </trkpt>
      <trkpt lat="48.99614" lon="1.89588">
        <ele>20</ele>
        <time>2023-01-09T03:59:36Z</time>
      </trkpt>
      <trkpt lat="48.99639" lon="1.89672">
        <ele>18</ele>
        <time>2023-01-09T04:00:57Z</time>
      </trkpt>
      <trkpt lat="48.9965" lon="1.8973">
        <ele>19</ele>
        <time>2023-01-09T04:01:49Z</time>
      </trkpt>
      <trkpt lat="48.99649" lon="1.89746">
        <ele>19</ele>
        <time>2023-01-09T04:02:04Z</time>
      </trkpt>
      <trkpt lat="48.99661" lon="1.89756">
        <ele>18</ele>
        <time>2023-01-09T04:02:22Z</time>
      </trkpt>
      <trkpt lat="48.99658" lon="1.89767">
        <ele>19</ele>
        <time>2023-01-09T04:02:32Z</time>
      </trkpt>
      <trkpt lat="48.99662" lon="1.89787">
        <ele>18</ele>
        <time>2023-01-09T04:02:51Z</time>
      </trkpt>
      <trkpt lat="48.99676" lon="1.89813">
        <ele>18</ele>
        <time>2023-01-09T04:03:20Z</time>
      </trkpt>
      <trkpt lat="48.99673" lon="1.89822">
        <ele>18</ele>
        <time>2023-01-09T04:03:29Z</time>
      </trkpt>
      <trkpt lat="48.99677" lon="1.89864">
        <ele>18</ele>
        <time>2023-01-09T04:04:06Z</time>
      </trkpt>
      <trkpt lat="48.99708" lon="1.89964">
        <ele>18</ele>
        <time>2023-01-09T04:05:43Z</time>
      </trkpt>
      <trkpt lat="48.99716" lon="1.89976">
        <ele>18</ele>
        <time>2023-01-09T04:05:58Z</time>
      </trkpt>
      <trkpt lat="48.99725" lon="1.9003">
        <ele>19</ele>
        <time>2023-01-09T04:06:47Z</time>
      </trkpt>
      <trkpt lat="48.99734" lon="1.90054">
        <ele>19</ele>
        <time>2023-01-09T04:07:11Z</time>
      </trkpt>
      <trkpt lat="48.99746" lon="1.90114">
        <ele>22</ele>
        <time>2023-01-09T04:08:06Z</time>
      </trkpt>
      <trkpt lat="48.99759" lon="1.90144">
        <ele>22</ele>
        <time>2023-01-09T04:08:37Z</time>
      </trkpt>
      <trkpt lat="48.99768" lon="1.90202">
        <ele>24</ele>
        <time>2023-01-09T04:09:29Z</time>
      </trkpt>
      <trkpt lat="48.99792" lon="1.90253">
        <ele>22</ele>
        <time>2023-01-09T04:10:24Z</time>
      </trkpt>
      <trkpt lat="48.998" lon="1.90286">
        <ele>20</ele>
        <time>2023-01-09T04:10:55Z</time>
      </trkpt>
      <trkpt lat="48.99824" lon="1.90332">
        <ele>17</ele>
        <time>2023-01-09T04:11:47Z</time>
      </trkpt>
      <trkpt lat="48.99827" lon="1.90361">
        <ele>17</ele>
        <time>2023-01-09T04:12:12Z</time>
      </trkpt>
      <trkpt lat="48.99859" lon="1.90459">
        <ele>18</ele>
        <time>2023-01-09T04:13:48Z</time>
      </trkpt>
      <trkpt lat="48.9988" lon="1.90588">
        <ele>20</ele>
        <time>2023-01-09T04:15:44Z</time>
      </trkpt>
      <trkpt lat="48.99896" lon="1.90631">
        <ele>19</ele>
        <time>2023-01-09T04:16:28Z</time>
      </trkpt>
      <trkpt lat="48.99906" lon="1.90678">
        <ele>19</ele>
        <time>2023-01-09T04:17:11Z</time>
      </trkpt>
      <trkpt lat="48.99914" lon="1.90752">
        <ele>18</ele>
        <time>2023-01-09T04:18:17Z</time>
      </trkpt>
      <trkpt lat="48.99922" lon="1.90777">
        <ele>19</ele>
        <time>2023-01-09T04:18:41Z</time>
      </trkpt>
      <trkpt lat="48.99918" lon="1.90802">
        <ele>19</ele>
        <time>2023-01-09T04:19:04Z</time>
      </trkpt>
      <trkpt lat="48.99911" lon="1.9081">
        <ele>20</ele>
        <time>2023-01-09T04:19:15Z</time>
      </trkpt>
      <trkpt lat="48.99943" lon="1.90788">
        <ele>19</ele>
        <time>2023-01-09T04:20:02Z</time>
      </trkpt>
      <trkpt lat="49.00025" lon="1.90743">
        <ele>21</ele>
        <time>2023-01-09T04:21:58Z</time>
      </trkpt>
      <trkpt lat="49.00064" lon="1.90715">
        <ele>23</ele>
        <time>2023-01-09T04:22:56Z</time>
      </trkpt>
      <trkpt lat="49.00212" lon="1.90646">
        <ele>25</ele>
        <time>2023-01-09T04:26:22Z</time>
      </trkpt>
      <trkpt lat="49.0023" lon="1.90643">
        <ele>24</ele>
        <time>2023-01-09T04:26:47Z</time>
      </trkpt>
      <trkpt lat="49.0026" lon="1.90648">
        <ele>23</ele>
        <time>2023-01-09T04:27:27Z</time>
      </trkpt>
      <trkpt lat="49.00381" lon="1.90694">
        <ele>20</ele>
        <time>2023-01-09T04:30:13Z</time>
      </trkpt>
      <trkpt lat="49.00388" lon="1.90685">
        <ele>21</ele>
        <time>2023-01-09T04:30:26Z</time>
      </trkpt>
      <trkpt lat="49.00416" lon="1.9068">
        <ele>22</ele>
        <time>2023-01-09T04:31:03Z</time>
      </trkpt>
      <trkpt lat="49.00428" lon="1.90669">
        <ele>22</ele>
        <time>2023-01-09T04:31:22Z</time>
      </trkpt>
      <trkpt lat="49.00437" lon="1.90647">
        <ele>22</ele>
        <time>2023-01-09T04:31:45Z</time>
      </trkpt>
      <trkpt lat="49.00435" lon="1.90616">
        <ele>22</ele>
        <time>2023-01-09T04:32:12Z</time>
      </trkpt>
      <trkpt lat="49.00427" lon="1.90584">
        <ele>21</ele>
        <time>2023-01-09T04:32:42Z</time>
      </trkpt>
      <trkpt lat="49.00429" lon="1.90551">
        <ele>21</ele>
        <time>2023-01-09T04:33:11Z</time>
      </trkpt>
      <trkpt lat="49.00441" lon="1.90546">
        <ele>22</ele>
        <time>2023-01-09T04:33:27Z</time>
      </trkpt>
      <trkpt lat="49.00458" lon="1.9053">
        <ele>22</ele>
        <time>2023-01-09T04:33:54Z</time>
      </trkpt>
      <trkpt lat="49.00467" lon="1.90533">
        <ele>22</ele>
        <time>2023-01-09T04:34:06Z</time>
      </trkpt>
      <trkpt lat="49.00478" lon="1.90523">
        <ele>22</ele>
        <time>2023-01-09T04:34:23Z</time>
      </trkpt>
      <trkpt lat="49.00526" lon="1.90506">
        <ele>24</ele>
        <time>2023-01-09T04:35:29Z</time>
      </trkpt>
      <trkpt lat="49.00545" lon="1.90493">
        <ele>24</ele>
        <time>2023-01-09T04:35:57Z</time>
      </trkpt>
      <trkpt lat="49.00549" lon="1.90487">
        <ele>24</ele>
        <time>2023-01-09T04:36:04Z</time>
      </trkpt>
      <trkpt lat="49.00547" lon="1.90459">
        <ele>24</ele>
        <time>2023-01-09T04:36:29Z</time>
      </trkpt>
      <trkpt lat="49.00555" lon="1.90447">
        <ele>24</ele>
        <time>2023-01-09T04:36:44Z</time>
      </trkpt>
      <trkpt lat="49.00566" lon="1.90455">
        <ele>25</ele>
        <time>2023-01-09T04:37:00Z</time>
      </trkpt>
      <trkpt lat="49.00599" lon="1.90452">
        <ele>25</ele>
        <time>2023-01-09T04:37:44Z</time>
      </trkpt>
      <trkpt lat="49.00607" lon="1.90458">
        <ele>25</ele>
        <time>2023-01-09T04:37:56Z</time>
      </trkpt>
      <trkpt lat="49.00622" lon="1.90461">
        <ele>25</ele>
        <time>2023-01-09T04:38:17Z</time>
      </trkpt>
      <trkpt lat="49.00637" lon="1.90453">
        <ele>25</ele>
        <time>2023-01-09T04:38:38Z</time>
      </trkpt>
      <trkpt lat="49.00648" lon="1.9044">
        <ele>25</ele>
        <time>2023-01-09T04:38:56Z</time>
      </trkpt>
      <trkpt lat="49.0065" lon="1.9043">
        <ele>24</ele>
        <time>2023-01-09T04:39:05Z</time>
      </trkpt>
      <trkpt lat="49.00646" lon="1.90368">
        <ele>24</ele>
        <time>2023-01-09T04:40:00Z</time>
      </trkpt>
    </trkseg>
  </trk>
</gpx>